Observation data for Earth on 11/15/2019      Previous  Date       Current Mesonet Observations  Soil Data  Daily Summary Page  Observations in Plain Language
KEA1 150600Z 20011KT 01/M03 A3042 RMK A01 T00081031  RH  075%=      5-min Rain = 0
KEA1 150601Z 20010KT 01/M03 A3042 RMK A01 T00061031  RH  076%=      5-min Rain = 0
KEA1 150602Z 20010KT 01/M03 A3042 RMK A01 T00051031  RH  076%=      5-min Rain = 0
KEA1 150603Z 20010KT 00/M03 A3042 RMK A01 T00041032  RH  077%=      5-min Rain = 0
KEA1 150604Z 20010KT 00/M03 A3042 RMK A01 T00031032  RH  077%=      5-min Rain = 0
KEA1 150605Z 20010KT 00/M03 A3042 RMK A01 T00031032  RH  078%=      5-min Rain = 0
KEA1 150606Z 20010KT 00/M03 A3042 RMK A01 T00031031  RH  078%=      5-min Rain = 0
KEA1 150607Z 20011KT 00/M03 A3042 RMK A01 T00031031  RH  078%=      5-min Rain = 0
KEA1 150608Z 20011KT 00/M03 A3042 RMK A01 T00031031  RH  078%=      5-min Rain = 0
KEA1 150609Z 20010KT 00/M03 A3042 RMK A01 T00031031  RH  078%=      5-min Rain = 0
KEA1 150610Z 20011KT 00/M03 A3042 RMK A01 T00021031  RH  078%=      5-min Rain = 0
KEA1 150611Z 20010KT 00/M03 A3042 RMK A01 T00021031  RH  078%=      5-min Rain = 0
KEA1 150612Z 20010KT 00/M03 A3042 RMK A01 T00021031  RH  078%=      5-min Rain = 0
KEA1 150613Z 20010KT 00/M03 A3042 RMK A01 T00021031  RH  078%=      5-min Rain = 0
KEA1 150614Z 20010KT 00/M03 A3042 RMK A01 T00031031  RH  078%=      5-min Rain = 0
KEA1 150615Z 20010KT 00/M03 A3042 RMK A01 T00021031  RH  078%=      5-min Rain = 0
KEA1 150616Z 20010KT 00/M03 A3042 RMK A01 T00021031  RH  078%=      5-min Rain = 0
KEA1 150617Z 20010KT 00/M03 A3042 RMK A01 T00021032  RH  078%=      5-min Rain = 0
KEA1 150618Z 20010KT 00/M03 A3042 RMK A01 T00021031  RH  078%=      5-min Rain = 0
KEA1 150619Z 20010KT 00/M03 A3042 RMK A01 T00021031  RH  078%=      5-min Rain = 0
KEA1 150620Z 20010KT 00/M03 A3042 RMK A01 T00021031  RH  079%=      5-min Rain = 0
KEA1 150621Z 20010KT 00/M03 A3042 RMK A01 T00021031  RH  078%=      5-min Rain = 0
KEA1 150622Z 20010KT 00/M03 A3042 RMK A01 T00021031  RH  078%=      5-min Rain = 0
KEA1 150623Z 20010KT 00/M03 A3042 RMK A01 T00021031  RH  078%=      5-min Rain = 0
KEA1 150624Z 20010KT 00/M03 A3042 RMK A01 T00031030  RH  078%=      5-min Rain = 0
KEA1 150625Z 20010KT 00/M03 A3042 RMK A01 T00041030  RH  078%=      5-min Rain = 0
KEA1 150626Z 20010KT 00/M03 A3042 RMK A01 T00041030  RH  078%=      5-min Rain = 0
KEA1 150627Z 20010KT 01/M03 A3042 RMK A01 T00051029  RH  078%=      5-min Rain = 0
KEA1 150628Z 20009KT 01/M03 A3042 RMK A01 T00061029  RH  077%=      5-min Rain = 0
KEA1 150629Z 20009KT 01/M03 A3042 RMK A01 T00061029  RH  077%=      5-min Rain = 0
KEA1 150630Z 20009KT 01/M03 A3042 RMK A01 T00061030  RH  077%=      5-min Rain = 0
KEA1 150631Z 20008KT 01/M03 A3042 RMK A01 T00061030  RH  077%=      5-min Rain = 0
KEA1 150632Z 20008KT 01/M03 A3042 RMK A01 T00061030  RH  077%=      5-min Rain = 0
KEA1 150633Z 20008KT 01/M03 A3042 RMK A01 T00061030  RH  077%=      5-min Rain = 0
KEA1 150634Z 20008KT 01/M03 A3042 RMK A01 T00061029  RH  077%=      5-min Rain = 0
KEA1 150635Z 21008KT 01/M03 A3042 RMK A01 T00061029  RH  077%=      5-min Rain = 0
KEA1 150636Z 21007KT 01/M03 A3042 RMK A01 T00071029  RH  077%=      5-min Rain = 0
KEA1 150637Z 20006KT 01/M03 A3042 RMK A01 T00071029  RH  077%=      5-min Rain = 0
KEA1 150638Z 21006KT 01/M03 A3042 RMK A01 T00071029  RH  077%=      5-min Rain = 0
KEA1 150639Z 22005KT 01/M03 A3042 RMK A01 T00061029  RH  077%=      5-min Rain = 0
KEA1 150640Z 21005KT 01/M03 A3042 RMK A01 T00071029  RH  077%=      5-min Rain = 0
KEA1 150641Z 21003KT 01/M03 A3042 RMK A01 T00081028  RH  077%=      5-min Rain = 0
KEA1 150642Z 20004KT 01/M03 A3042 RMK A01 T00081029  RH  076%=      5-min Rain = 0
KEA1 150643Z 20003KT 01/M03 A3042 RMK A01 T00081029  RH  076%=      5-min Rain = 0
KEA1 150644Z 20003KT 01/M03 A3042 RMK A01 T00081030  RH  076%=      5-min Rain = 0
KEA1 150645Z 19001KT 01/M03 A3042 RMK A01 T00061032  RH  075%=      5-min Rain = 0
KEA1 150646Z 27000KT 00/M04 A3042 RMK A01 T00041035  RH  075%=      5-min Rain = 0
KEA1 150647Z 26001KT 00/M04 A3042 RMK A01 T00021036  RH  076%=      5-min Rain = 0
KEA1 150648Z 28001KT 00/04 A3042 RMK A01 T00-00-37  RH  076%=      5-min Rain = 0
KEA1 150649Z 28002KT M00/M04 A3042 RMK A01 T10011037  RH  077%=      5-min Rain = 0
KEA1 150650Z 27002KT M00/M04 A3042 RMK A01 T10031037  RH  078%=      5-min Rain = 0
KEA1 150651Z 28002KT M00/M04 A3042 RMK A01 T10041037  RH  078%=      5-min Rain = 0
KEA1 150652Z 29002KT M01/M04 A3042 RMK A01 T10051036  RH  079%=      5-min Rain = 0
KEA1 150653Z 28002KT M01/M04 A3042 RMK A01 T10051036  RH  080%=      5-min Rain = 0
KEA1 150654Z 28002KT M01/M04 A3042 RMK A01 T10051036  RH  080%=      5-min Rain = 0
KEA1 150655Z 28003KT M01/M04 A3042 RMK A01 T10051035  RH  080%=      5-min Rain = 0
KEA1 150656Z 27003KT M01/M04 A3042 RMK A01 T10051035  RH  080%=      5-min Rain = 0
KEA1 150657Z 27003KT M01/M04 A3042 RMK A01 T10061036  RH  080%=      5-min Rain = 0
KEA1 150658Z 26003KT M01/M04 A3042 RMK A01 T10061035  RH  081%=      5-min Rain = 0
KEA1 150659Z 24003KT M01/M04 A3042 RMK A01 T10061035  RH  081%=      5-min Rain = 0
KEA1 150700Z 25002KT M01/M03 A3042 RMK A01 T10061034  RH  081%=      5-min Rain = 0
KEA1 150701Z 26003KT M01/M03 A3042 RMK A01 T10051033  RH  082%=      5-min Rain = 0
KEA1 150702Z 24003KT M01/M03 A3042 RMK A01 T10051033  RH  081%=      5-min Rain = 0
KEA1 150703Z 25002KT M01/M03 A3042 RMK A01 T10051033  RH  081%=      5-min Rain = 0
KEA1 150704Z 24002KT M01/M03 A3042 RMK A01 T10051033  RH  081%=      5-min Rain = 0
KEA1 150705Z 23001KT M01/M03 A3042 RMK A01 T10061034  RH  081%=      5-min Rain = 0
KEA1 150706Z 24001KT M01/M03 A3042 RMK A01 T10051030  RH  083%=      5-min Rain = 0
KEA1 150707Z 25001KT M00/M03 A3042 RMK A01 T10031028  RH  083%=      5-min Rain = 0
KEA1 150708Z 26000KT M00/M03 A3042 RMK A01 T10041032  RH  081%=      5-min Rain = 0
KEA1 150709Z 23000KT M01/M03 A3042 RMK A01 T10051034  RH  081%=      5-min Rain = 0
KEA1 150710Z 25000KT M01/M03 A3042 RMK A01 T10061033  RH  082%=      5-min Rain = 0
KEA1 150711Z 24001KT M01/M03 A3042 RMK A01 T10051031  RH  083%=      5-min Rain = 0
KEA1 150712Z 21001KT M00/M03 A3042 RMK A01 T10041030  RH  083%=      5-min Rain = 0
KEA1 150713Z 22001KT M00/M03 A3042 RMK A01 T10041030  RH  083%=      5-min Rain = 0
KEA1 150714Z 21003KT M00/M03 A3042 RMK A01 T10021027  RH  083%=      5-min Rain = 0
KEA1 150715Z 20003KT 00/M03 A3042 RMK A01 T00011026  RH  082%=      5-min Rain = 0
KEA1 150716Z 20003KT 00/M03 A3042 RMK A01 T00021028  RH  080%=      5-min Rain = 0
KEA1 150717Z 19004KT 00/M03 A3042 RMK A01 T00011031  RH  079%=      5-min Rain = 0
KEA1 150718Z 19005KT 00/03 A3042 RMK A01 T00000-31  RH  079%=      5-min Rain = 0
KEA1 150719Z 20006KT 00/M03 A3042 RMK A01 T00011030  RH  080%=      5-min Rain = 0
KEA1 150720Z 20006KT 00/03 A3042 RMK A01 T00000-30  RH  080%=      5-min Rain = 0
KEA1 150721Z 20006KT 00/M03 A3042 RMK A01 T00011029  RH  080%=      5-min Rain = 0
KEA1 150722Z 20006KT 00/M03 A3042 RMK A01 T00011030  RH  080%=      5-min Rain = 0
KEA1 150723Z 20006KT 00/03 A3042 RMK A01 T00000-31  RH  080%=      5-min Rain = 0
KEA1 150724Z 20006KT 00/03 A3042 RMK A01 T00-00-31  RH  080%=      5-min Rain = 0
KEA1 150725Z 20006KT M00/M03 A3042 RMK A01 T10011031  RH  080%=      5-min Rain = 0
KEA1 150726Z 20007KT M00/M03 A3042 RMK A01 T10011031  RH  080%=      5-min Rain = 0
KEA1 150727Z 20007KT M00/M03 A3042 RMK A01 T10011031  RH  080%=      5-min Rain = 0
KEA1 150728Z 19008KT M00/M03 A3042 RMK A01 T10011031  RH  080%=      5-min Rain = 0
KEA1 150729Z 19008KT M00/M03 A3041 RMK A01 T10011031  RH  080%=      5-min Rain = 0
KEA1 150730Z 20008KT 00/03 A3041 RMK A01 T00-00-30  RH  080%=      5-min Rain = 0
KEA1 150731Z 19008KT 00/03 A3041 RMK A01 T00-00-31  RH  080%=      5-min Rain = 0
KEA1 150732Z 19009KT 00/03 A3041 RMK A01 T00000-31  RH  079%=      5-min Rain = 0
KEA1 150733Z 19009KT 00/03 A3041 RMK A01 T00000-31  RH  079%=      5-min Rain = 0
KEA1 150734Z 19008KT 00/03 A3041 RMK A01 T00-00-31  RH  079%=      5-min Rain = 0
KEA1 150735Z 19008KT M00/M03 A3041 RMK A01 T10011032  RH  079%=      5-min Rain = 0
KEA1 150736Z 19009KT M00/M03 A3041 RMK A01 T10021033  RH  080%=      5-min Rain = 0
KEA1 150737Z 19009KT M00/M03 A3041 RMK A01 T10021033  RH  080%=      5-min Rain = 0
KEA1 150738Z 19009KT M00/M03 A3041 RMK A01 T10031033  RH  080%=      5-min Rain = 0
KEA1 150739Z 19008KT M00/M03 A3041 RMK A01 T10031033  RH  081%=      5-min Rain = 0
KEA1 150740Z 19009KT M00/M03 A3041 RMK A01 T10041033  RH  081%=      5-min Rain = 0
KEA1 150741Z 19009KT M01/M03 A3041 RMK A01 T10051033  RH  081%=      5-min Rain = 0
KEA1 150742Z 19010KT M01/M03 A3041 RMK A01 T10051033  RH  081%=      5-min Rain = 0
KEA1 150743Z 19009KT M01/M03 A3041 RMK A01 T10051033  RH  082%=      5-min Rain = 0
KEA1 150744Z 19009KT M01/M03 A3041 RMK A01 T10051032  RH  082%=      5-min Rain = 0
KEA1 150745Z 19009KT M01/M03 A3041 RMK A01 T10051032  RH  082%=      5-min Rain = 0
KEA1 150746Z 19009KT M00/M03 A3041 RMK A01 T10041032  RH  082%=      5-min Rain = 0
KEA1 150747Z 19009KT M00/M03 A3041 RMK A01 T10041032  RH  082%=      5-min Rain = 0
KEA1 150748Z 19009KT M00/M03 A3041 RMK A01 T10041032  RH  081%=      5-min Rain = 0
KEA1 150749Z 19010KT M00/M03 A3041 RMK A01 T10041032  RH  082%=      5-min Rain = 0
KEA1 150750Z 19010KT M00/M03 A3041 RMK A01 T10041032  RH  082%=      5-min Rain = 0
KEA1 150751Z 19010KT M00/M03 A3041 RMK A01 T10041032  RH  082%=      5-min Rain = 0
KEA1 150752Z 19010KT M00/M03 A3041 RMK A01 T10041032  RH  082%=      5-min Rain = 0
KEA1 150753Z 19010KT M00/M03 A304 RMK A01 T10041032  RH  082%=      5-min Rain = 0
KEA1 150754Z 19010KT M00/M03 A304 RMK A01 T10041031  RH  082%=      5-min Rain = 0
KEA1 150755Z 19010KT M00/M03 A304 RMK A01 T10041031  RH  082%=      5-min Rain = 0
KEA1 150756Z 19010KT M00/M03 A304 RMK A01 T10031030  RH  082%=      5-min Rain = 0
KEA1 150757Z 19011KT M00/M03 A304 RMK A01 T10031030  RH  082%=      5-min Rain = 0
KEA1 150758Z 19011KT M00/M03 A304 RMK A01 T10021030  RH  082%=      5-min Rain = 0
KEA1 150759Z 19011KT M00/M03 A304 RMK A01 T10021030  RH  082%=      5-min Rain = 0
KEA1 150800Z 19010KT M00/M03 A304 RMK A01 T10021029  RH  082%=      5-min Rain = 0
KEA1 150801Z 19011KT M00/M03 A304 RMK A01 T10021030  RH  081%=      5-min Rain = 0
KEA1 150802Z 19011KT M00/M03 A304 RMK A01 T10021030  RH  081%=      5-min Rain = 0
KEA1 150803Z 19010KT M00/M03 A304 RMK A01 T10021030  RH  081%=      5-min Rain = 0
KEA1 150804Z 19010KT M00/M03 A304 RMK A01 T10021030  RH  081%=      5-min Rain = 0
KEA1 150805Z 19011KT M00/M03 A304 RMK A01 T10031030  RH  082%=      5-min Rain = 0
KEA1 150806Z 19011KT M00/M03 A304 RMK A01 T10031030  RH  082%=      5-min Rain = 0
KEA1 150807Z 19010KT M00/M03 A304 RMK A01 T10031030  RH  082%=      5-min Rain = 0
KEA1 150808Z 19010KT M00/M03 A304 RMK A01 T10031031  RH  082%=      5-min Rain = 0
KEA1 150809Z 19010KT M00/M03 A304 RMK A01 T10031031  RH  082%=      5-min Rain = 0
KEA1 150810Z 19010KT M00/M03 A304 RMK A01 T10031030  RH  082%=      5-min Rain = 0
KEA1 150811Z 19010KT M00/M03 A304 RMK A01 T10031030  RH  082%=      5-min Rain = 0
KEA1 150812Z 19010KT M00/M03 A304 RMK A01 T10041031  RH  082%=      5-min Rain = 0
KEA1 150813Z 19010KT M00/M03 A304 RMK A01 T10041031  RH  082%=      5-min Rain = 0
KEA1 150814Z 19010KT M00/M03 A304 RMK A01 T10031030  RH  082%=      5-min Rain = 0
KEA1 150815Z 20010KT M00/M03 A304 RMK A01 T10041030  RH  082%=      5-min Rain = 0
KEA1 150816Z 20011KT M00/M03 A304 RMK A01 T10031030  RH  082%=      5-min Rain = 0
KEA1 150817Z 20011KT M00/M03 A3039 RMK A01 T10031030  RH  082%=      5-min Rain = 0
KEA1 150818Z 20011KT M00/M03 A3039 RMK A01 T10031031  RH  082%=      5-min Rain = 0
KEA1 150819Z 20011KT M00/M03 A3039 RMK A01 T10031030  RH  082%=      5-min Rain = 0
KEA1 150820Z 20011KT M00/M03 A3039 RMK A01 T10031030  RH  082%=      5-min Rain = 0
KEA1 150821Z 20011KT M00/M03 A3039 RMK A01 T10021030  RH  082%=      5-min Rain = 0
KEA1 150822Z 19011KT M00/M03 A3039 RMK A01 T10021030  RH  082%=      5-min Rain = 0
KEA1 150823Z 19011KT 00/03 A3039 RMK A01 T00-00-28  RH  082%=      5-min Rain = 0
KEA1 150824Z 19011KT 00/M03 A3039 RMK A01 T00011028  RH  081%=      5-min Rain = 0
KEA1 150825Z 19011KT 00/M03 A3039 RMK A01 T00011028  RH  081%=      5-min Rain = 0
KEA1 150826Z 19011KT 00/M03 A3039 RMK A01 T00011029  RH  080%=      5-min Rain = 0
KEA1 150827Z 19011KT 00/M03 A3039 RMK A01 T00011029  RH  080%=      5-min Rain = 0
KEA1 150828Z 19010KT 00/M03 A3039 RMK A01 T00011029  RH  081%=      5-min Rain = 0
KEA1 150829Z 19011KT 00/M03 A3039 RMK A01 T00011029  RH  081%=      5-min Rain = 0
KEA1 150830Z 19011KT 00/03 A3039 RMK A01 T00-00-29  RH  081%=      5-min Rain = 0
KEA1 150831Z 19011KT 00/03 A3039 RMK A01 T00-00-29  RH  081%=      5-min Rain = 0
KEA1 150832Z 19010KT M00/M03 A3039 RMK A01 T10011029  RH  081%=      5-min Rain = 0
KEA1 150833Z 19010KT M00/M03 A3039 RMK A01 T10011029  RH  081%=      5-min Rain = 0
KEA1 150834Z 19011KT M00/M03 A3039 RMK A01 T10011030  RH  081%=      5-min Rain = 0
KEA1 150835Z 19010KT M00/M03 A3039 RMK A01 T10021030  RH  081%=      5-min Rain = 0
KEA1 150836Z 19011KT M00/M03 A3039 RMK A01 T10021030  RH  082%=      5-min Rain = 0
KEA1 150837Z 19011KT M00/M03 A3039 RMK A01 T10021030  RH  082%=      5-min Rain = 0
KEA1 150838Z 20011KT M00/M03 A3039 RMK A01 T10021029  RH  082%=      5-min Rain = 0
KEA1 150839Z 20011KT M00/M03 A3039 RMK A01 T10021029  RH  082%=      5-min Rain = 0
KEA1 150840Z 20011KT M00/M03 A3039 RMK A01 T10021029  RH  082%=      5-min Rain = 0
KEA1 150841Z 20012KT M00/M03 A3039 RMK A01 T10011029  RH  082%=      5-min Rain = 0
KEA1 150842Z 20012KT M00/M03 A3039 RMK A01 T10011029  RH  082%=      5-min Rain = 0
KEA1 150843Z 20012KT 00/03 A3039 RMK A01 T00-00-28  RH  082%=      5-min Rain = 0
KEA1 150844Z 20012KT 00/M03 A3039 RMK A01 T00011027  RH  081%=      5-min Rain = 0
KEA1 150845Z 20012KT 00/M03 A3039 RMK A01 T00041025  RH  081%=      5-min Rain = 0
KEA1 150846Z 20011KT 01/M03 A3039 RMK A01 T00061025  RH  080%=      5-min Rain = 0
KEA1 150847Z 20012KT 01/M03 A3039 RMK A01 T00061026  RH  079%=      5-min Rain = 0
KEA1 150848Z 20011KT 01/M03 A3039 RMK A01 T00071026  RH  079%=      5-min Rain = 0
KEA1 150849Z 20011KT 01/M03 A3039 RMK A01 T00051027  RH  079%=      5-min Rain = 0
KEA1 150850Z 20011KT 00/M03 A3039 RMK A01 T00041028  RH  079%=      5-min Rain = 0
KEA1 150851Z 20011KT 00/M03 A3039 RMK A01 T00041027  RH  080%=      5-min Rain = 0
KEA1 150852Z 20011KT 00/M03 A3039 RMK A01 T00041027  RH  079%=      5-min Rain = 0
KEA1 150853Z 20012KT 00/M03 A3039 RMK A01 T00041027  RH  080%=      5-min Rain = 0
KEA1 150854Z 20011KT 01/M03 A3039 RMK A01 T00051027  RH  079%=      5-min Rain = 0
KEA1 150855Z 19012KT 01/M03 A3039 RMK A01 T00051028  RH  079%=      5-min Rain = 0
KEA1 150856Z 20012KT 00/M03 A3039 RMK A01 T00041028  RH  079%=      5-min Rain = 0
KEA1 150857Z 20011KT 00/M03 A3039 RMK A01 T00041028  RH  079%=      5-min Rain = 0
KEA1 150858Z 20011KT 00/M03 A3039 RMK A01 T00031029  RH  079%=      5-min Rain = 0
KEA1 150859Z 20011KT 00/M03 A3039 RMK A01 T00031029  RH  079%=      5-min Rain = 0
KEA1 150900Z 20012KT 00/M03 A3039 RMK A01 T00021029  RH  080%=      5-min Rain = 0
KEA1 150901Z 20012KT 00/M03 A3039 RMK A01 T00021028  RH  080%=      5-min Rain = 0
KEA1 150902Z 20012KT 00/M03 A3039 RMK A01 T00031027  RH  080%=      5-min Rain = 0
KEA1 150903Z 20012KT 01/M03 A3039 RMK A01 T00051026  RH  080%=      5-min Rain = 0
KEA1 150904Z 20013KT 01/M03 A3039 RMK A01 T00051026  RH  080%=      5-min Rain = 0
KEA1 150905Z 20013KT 01/M02 A3039 RMK A01 T00071024  RH  079%=      5-min Rain = 0
KEA1 150906Z 20012KT 01/M02 A3039 RMK A01 T00091023  RH  079%=      5-min Rain = 0
KEA1 150907Z 20013KT 01/M02 A3039 RMK A01 T00111023  RH  078%=      5-min Rain = 0
KEA1 150908Z 20012KT 01/M02 A3039 RMK A01 T00131022  RH  078%=      5-min Rain = 0
KEA1 150909Z 20012KT 01/M02 A3039 RMK A01 T00141022  RH  077%=      5-min Rain = 0
KEA1 150910Z 20013KT 02/M02 A3039 RMK A01 T00161021  RH  076%=      5-min Rain = 0
KEA1 150911Z 20014KT 02/M02 A3039 RMK A01 T00181020  RH  076%=      5-min Rain = 0
KEA1 150912Z 20014KT 02/M02 A3038 RMK A01 T00201020  RH  075%=      5-min Rain = 0
KEA1 150913Z 20013KT 02/M02 A3039 RMK A01 T00221020  RH  074%=      5-min Rain = 0
KEA1 150914Z 20013KT 02/M02 A3038 RMK A01 T00221020  RH  073%=      5-min Rain = 0
KEA1 150915Z 20014KT 02/M02 A3039 RMK A01 T00221021  RH  073%=      5-min Rain = 0
KEA1 150916Z 20014KT 02/M02 A3038 RMK A01 T00221021  RH  073%=      5-min Rain = 0
KEA1 150917Z 20013KT 02/M02 A3039 RMK A01 T00221021  RH  073%=      5-min Rain = 0
KEA1 150918Z 20012KT 02/M02 A3039 RMK A01 T00211022  RH  073%=      5-min Rain = 0
KEA1 150919Z 20013KT 02/M02 A3038 RMK A01 T00211022  RH  073%=      5-min Rain = 0
KEA1 150920Z 20013KT 02/M02 A3039 RMK A01 T00211021  RH  073%=      5-min Rain = 0
KEA1 150921Z 20012KT 02/M02 A3039 RMK A01 T00211022  RH  073%=      5-min Rain = 0
KEA1 150922Z 20012G17KT 02/M02 A3039 RMK A01 T00201022  RH  074%=      5-min Rain = 0
KEA1 150923Z 21013KT 02/M02 A3039 RMK A01 T00201022  RH  074%=      5-min Rain = 0
KEA1 150924Z 21013KT 02/M02 A3039 RMK A01 T00211021  RH  074%=      5-min Rain = 0
KEA1 150925Z 21012KT 02/M02 A3039 RMK A01 T00231020  RH  073%=      5-min Rain = 0
KEA1 150926Z 23009KT 02/M02 A3039 RMK A01 T00241021  RH  072%=      5-min Rain = 0
KEA1 150927Z 28003KT 02/M02 A3039 RMK A01 T00231021  RH  073%=      5-min Rain = 0
KEA1 150928Z 28002KT 02/M03 A3039 RMK A01 T00171027  RH  072%=      5-min Rain = 0
KEA1 150929Z 28003KT 01/M03 A3039 RMK A01 T00111031  RH  074%=      5-min Rain = 0
KEA1 150930Z 26004KT 01/M03 A3039 RMK A01 T00071032  RH  075%=      5-min Rain = 0
KEA1 150931Z 26005KT 00/M03 A3039 RMK A01 T00041033  RH  077%=      5-min Rain = 0
KEA1 150932Z 24005KT 00/M03 A3039 RMK A01 T00011032  RH  078%=      5-min Rain = 0
KEA1 150933Z 22006KT 00/03 A3038 RMK A01 T00000-30  RH  080%=      5-min Rain = 0
KEA1 150934Z 23004KT 00/03 A3038 RMK A01 T00000-28  RH  081%=      5-min Rain = 0
KEA1 150935Z 23005KT 00/M02 A3038 RMK A01 T00021023  RH  083%=      5-min Rain = 0
KEA1 150936Z 21004KT 00/M02 A3038 RMK A01 T00031021  RH  084%=      5-min Rain = 0
KEA1 150937Z 23005KT 00/M02 A3038 RMK A01 T00041020  RH  084%=      5-min Rain = 0
KEA1 150938Z 24004KT 01/M02 A3038 RMK A01 T00061018  RH  084%=      5-min Rain = 0
KEA1 150939Z 25004KT 01/M02 A3038 RMK A01 T00071017  RH  084%=      5-min Rain = 0
KEA1 150940Z 27001KT 01/M02 A3038 RMK A01 T00081016  RH  084%=      5-min Rain = 0
KEA1 150941Z 29002KT 01/M02 A3038 RMK A01 T00071021  RH  082%=      5-min Rain = 0
KEA1 150942Z 28002KT 00/M03 A3038 RMK A01 T00031029  RH  079%=      5-min Rain = 0
KEA1 150943Z 27002KT 00/03 A3038 RMK A01 T00000-32  RH  079%=      5-min Rain = 0
KEA1 150944Z 28004KT M00/M03 A3038 RMK A01 T10021033  RH  080%=      5-min Rain = 0
KEA1 150945Z 27004KT M00/M03 A3038 RMK A01 T10041033  RH  081%=      5-min Rain = 0
KEA1 150946Z 26004KT M01/M03 A3038 RMK A01 T10051033  RH  081%=      5-min Rain = 0
KEA1 150947Z 25005KT M01/M03 A3038 RMK A01 T10061033  RH  082%=      5-min Rain = 0
KEA1 150948Z 24004KT M01/M03 A3038 RMK A01 T10051029  RH  084%=      5-min Rain = 0
KEA1 150949Z 22004KT M01/M03 A3038 RMK A01 T10051028  RH  084%=      5-min Rain = 0
KEA1 150950Z 24003KT M00/M03 A3038 RMK A01 T10041028  RH  084%=      5-min Rain = 0
KEA1 150951Z 22004KT M00/M03 A3038 RMK A01 T10041027  RH  084%=      5-min Rain = 0
KEA1 150952Z 22005KT M00/M03 A3038 RMK A01 T10021025  RH  085%=      5-min Rain = 0
KEA1 150953Z 22005KT 00/M02 A3038 RMK A01 T00011020  RH  086%=      5-min Rain = 0
KEA1 150954Z 21004KT 01/M02 A3038 RMK A01 T00061016  RH  085%=      5-min Rain = 0
KEA1 150955Z 20005KT 01/M02 A3038 RMK A01 T00071019  RH  083%=      5-min Rain = 0
KEA1 150956Z 20006KT 01/M02 A3038 RMK A01 T00071022  RH  081%=      5-min Rain = 0
KEA1 150957Z 20005KT 01/M02 A3038 RMK A01 T00061024  RH  080%=      5-min Rain = 0
KEA1 150958Z 19006KT 01/M03 A3038 RMK A01 T00071025  RH  080%=      5-min Rain = 0
KEA1 150959Z 19005KT 01/M03 A3038 RMK A01 T00061026  RH  079%=      5-min Rain = 0
KEA1 151000Z 19004KT 01/M03 A3038 RMK A01 T00051027  RH  079%=      5-min Rain = 0
KEA1 151001Z 18003KT 00/M03 A3038 RMK A01 T00031028  RH  079%=      5-min Rain = 0
KEA1 151002Z 18002KT 00/M03 A3038 RMK A01 T00011030  RH  080%=      5-min Rain = 0
KEA1 151003Z 13001KT M00/M03 A3038 RMK A01 T10011031  RH  080%=      5-min Rain = 0
KEA1 151004Z 09002KT M00/M03 A3038 RMK A01 T10031033  RH  081%=      5-min Rain = 0
KEA1 151005Z 05002KT M01/M04 A3038 RMK A01 T10071035  RH  081%=      5-min Rain = 0
KEA1 151006Z 04002KT M01/M04 A3038 RMK A01 T10111039  RH  081%=      5-min Rain = 0
KEA1 151007Z 02002KT M01/M04 A3038 RMK A01 T10141042  RH  082%=      5-min Rain = 0
KEA1 151008Z 01002KT M02/M04 A3038 RMK A01 T10161041  RH  083%=      5-min Rain = 0
KEA1 151009Z 35001KT M02/M04 A3038 RMK A01 T10161038  RH  085%=      5-min Rain = 0
KEA1 151010Z 30001KT M01/M03 A3038 RMK A01 T10121030  RH  088%=      5-min Rain = 0
KEA1 151011Z 24002KT M01/M03 A3038 RMK A01 T10081025  RH  088%=      5-min Rain = 0
KEA1 151012Z 23002KT M01/M02 A3038 RMK A01 T10051024  RH  087%=      5-min Rain = 0
KEA1 151013Z 22002KT M00/M02 A3038 RMK A01 T10021023  RH  085%=      5-min Rain = 0
KEA1 151014Z 24001KT M00/M03 A3038 RMK A01 T10011025  RH  083%=      5-min Rain = 0
KEA1 151015Z 20001KT M00/M03 A3038 RMK A01 T10011027  RH  082%=      5-min Rain = 0
KEA1 151016Z 21001KT M00/M03 A3038 RMK A01 T10011028  RH  082%=      5-min Rain = 0
KEA1 151017Z 28002KT M00/M03 A3038 RMK A01 T10021029  RH  082%=      5-min Rain = 0
KEA1 151018Z 26002KT M00/M03 A3038 RMK A01 T10021027  RH  083%=      5-min Rain = 0
KEA1 151019Z 29001KT M00/M03 A3038 RMK A01 T10011027  RH  083%=      5-min Rain = 0
KEA1 151020Z 31001KT M00/M03 A3038 RMK A01 T10021029  RH  082%=      5-min Rain = 0
KEA1 151021Z 33001KT M00/M03 A3038 RMK A01 T10021029  RH  082%=      5-min Rain = 0
KEA1 151022Z 33000KT M00/M03 A3038 RMK A01 T10041030  RH  082%=      5-min Rain = 0
KEA1 151023Z 00000KT M00/M03 A3038 RMK A01 T10041031  RH  082%=      5-min Rain = 0
KEA1 151024Z 00000KT M00/M03 A3038 RMK A01 T10041030  RH  083%=      5-min Rain = 0
KEA1 151025Z 00000KT M00/M03 A3038 RMK A01 T10041028  RH  084%=      5-min Rain = 0
KEA1 151026Z 05000KT M00/M03 A3038 RMK A01 T10031027  RH  084%=      5-min Rain = 0
KEA1 151027Z 00000KT M00/M03 A3038 RMK A01 T10031028  RH  083%=      5-min Rain = 0
KEA1 151028Z 00000KT M00/M03 A3038 RMK A01 T10041030  RH  083%=      5-min Rain = 0
KEA1 151029Z 33000KT M01/M03 A3037 RMK A01 T10061033  RH  082%=      5-min Rain = 0
KEA1 151030Z 00000KT M01/M03 A3037 RMK A01 T10081034  RH  082%=      5-min Rain = 0
KEA1 151031Z 24001KT M01/M03 A3037 RMK A01 T10081032  RH  083%=      5-min Rain = 0
KEA1 151032Z 22000KT M01/M03 A3037 RMK A01 T10081033  RH  083%=      5-min Rain = 0
KEA1 151033Z 26001KT M01/M03 A3037 RMK A01 T10091033  RH  084%=      5-min Rain = 0
KEA1 151034Z 26001KT M01/M03 A3037 RMK A01 T10091031  RH  085%=      5-min Rain = 0
KEA1 151035Z 26001KT M01/M03 A3037 RMK A01 T10081030  RH  085%=      5-min Rain = 0
KEA1 151036Z 27003KT M01/M03 A3037 RMK A01 T10081030  RH  085%=      5-min Rain = 0
KEA1 151037Z 27002KT M01/M03 A3037 RMK A01 T10081033  RH  084%=      5-min Rain = 0
KEA1 151038Z 26003KT M01/M04 A3037 RMK A01 T10111037  RH  083%=      5-min Rain = 0
KEA1 151039Z 27003KT M01/M04 A3037 RMK A01 T10121036  RH  084%=      5-min Rain = 0
KEA1 151040Z 26002KT M01/M04 A3037 RMK A01 T10141040  RH  082%=      5-min Rain = 0
KEA1 151041Z 28003KT M02/M04 A3037 RMK A01 T10161041  RH  083%=      5-min Rain = 0
KEA1 151042Z 29003KT M02/M04 A3037 RMK A01 T10171040  RH  084%=      5-min Rain = 0
KEA1 151043Z 29003KT M02/M04 A3037 RMK A01 T10181041  RH  084%=      5-min Rain = 0
KEA1 151044Z 29003KT M02/M04 A3037 RMK A01 T10181040  RH  085%=      5-min Rain = 0
KEA1 151045Z 28003KT M02/M04 A3037 RMK A01 T10191040  RH  085%=      5-min Rain = 0
KEA1 151046Z 29003KT M02/M04 A3037 RMK A01 T10211043  RH  085%=      5-min Rain = 0
KEA1 151047Z 30003KT M02/M05 A3037 RMK A01 T10231047  RH  084%=      5-min Rain = 0
KEA1 151048Z 29003KT M02/M05 A3037 RMK A01 T10241047  RH  084%=      5-min Rain = 0
KEA1 151049Z 27003KT M03/M05 A3037 RMK A01 T10251046  RH  086%=      5-min Rain = 0
KEA1 151050Z 24003KT M02/M04 A3037 RMK A01 T10231042  RH  087%=      5-min Rain = 0
KEA1 151051Z 26004KT M02/M04 A3037 RMK A01 T10191035  RH  089%=      5-min Rain = 0
KEA1 151052Z 25004KT M01/M03 A3037 RMK A01 T10141028  RH  090%=      5-min Rain = 0
KEA1 151053Z 26003KT M01/M03 A3037 RMK A01 T10121029  RH  088%=      5-min Rain = 0
KEA1 151054Z 24004KT M01/M03 A3037 RMK A01 T10121031  RH  087%=      5-min Rain = 0
KEA1 151055Z 27003KT M01/M03 A3037 RMK A01 T10121032  RH  086%=      5-min Rain = 0
KEA1 151056Z 27003KT M01/M03 A3037 RMK A01 T10121034  RH  085%=      5-min Rain = 0
KEA1 151057Z 28003KT M01/M04 A3037 RMK A01 T10131035  RH  085%=      5-min Rain = 0
KEA1 151058Z 26003KT M01/M04 A3037 RMK A01 T10141037  RH  085%=      5-min Rain = 0
KEA1 151059Z 24003KT M02/M04 A3037 RMK A01 T10151036  RH  085%=      5-min Rain = 0
KEA1 151100Z 23003KT M01/M03 A3037 RMK A01 T10131032  RH  087%=      5-min Rain = 0
KEA1 151101Z 24003KT M01/M03 A3037 RMK A01 T10111030  RH  087%=      5-min Rain = 0
KEA1 151102Z 23003KT M01/M03 A3037 RMK A01 T10091028  RH  087%=      5-min Rain = 0
KEA1 151103Z 23003KT M01/M03 A3037 RMK A01 T10071026  RH  087%=      5-min Rain = 0
KEA1 151104Z 23002KT M01/M03 A3037 RMK A01 T10061027  RH  086%=      5-min Rain = 0
KEA1 151105Z 24003KT M01/M03 A3037 RMK A01 T10071027  RH  086%=      5-min Rain = 0
KEA1 151106Z 25003KT M01/M03 A3037 RMK A01 T10061028  RH  086%=      5-min Rain = 0
KEA1 151107Z 23003KT M01/M03 A3037 RMK A01 T10071029  RH  085%=      5-min Rain = 0
KEA1 151108Z 24002KT M01/M03 A3037 RMK A01 T10071029  RH  085%=      5-min Rain = 0
KEA1 151109Z 25003KT M01/M03 A3037 RMK A01 T10071029  RH  085%=      5-min Rain = 0
KEA1 151110Z 25003KT M01/M03 A3037 RMK A01 T10071028  RH  086%=      5-min Rain = 0
KEA1 151111Z 23003KT M01/M03 A3037 RMK A01 T10071029  RH  086%=      5-min Rain = 0
KEA1 151112Z 23003KT M01/M03 A3037 RMK A01 T10081030  RH  085%=      5-min Rain = 0
KEA1 151113Z 22004KT M01/M03 A3037 RMK A01 T10081029  RH  086%=      5-min Rain = 0
KEA1 151114Z 22005KT M01/M03 A3037 RMK A01 T10071028  RH  086%=      5-min Rain = 0
KEA1 151115Z 25003KT M01/M03 A3037 RMK A01 T10051026  RH  086%=      5-min Rain = 0
KEA1 151116Z 22003KT M01/M03 A3037 RMK A01 T10051027  RH  085%=      5-min Rain = 0
KEA1 151117Z 23003KT M00/M03 A3037 RMK A01 T10041025  RH  086%=      5-min Rain = 0
KEA1 151118Z 23004KT M00/M02 A3037 RMK A01 T10031023  RH  087%=      5-min Rain = 0
KEA1 151119Z 23003KT M00/M02 A3037 RMK A01 T10021021  RH  087%=      5-min Rain = 0
KEA1 151120Z 23003KT M00/M02 A3037 RMK A01 T10011021  RH  087%=      5-min Rain = 0
KEA1 151121Z 22004KT M00/M02 A3037 RMK A01 T10011021  RH  086%=      5-min Rain = 0
KEA1 151122Z 22003KT 00/02 A3037 RMK A01 T00000-20  RH  086%=      5-min Rain = 0
KEA1 151123Z 22003KT 00/M02 A3037 RMK A01 T00011019  RH  086%=      5-min Rain = 0
KEA1 151124Z 22003KT 00/M02 A3037 RMK A01 T00021018  RH  087%=      5-min Rain = 0
KEA1 151125Z 21004KT 00/M02 A3037 RMK A01 T00021019  RH  086%=      5-min Rain = 0
KEA1 151126Z 20001KT 00/M02 A3037 RMK A01 T00021021  RH  085%=      5-min Rain = 0
KEA1 151127Z 21001KT 00/03 A3037 RMK A01 T00-00-25  RH  083%=      5-min Rain = 0
KEA1 151128Z 22003KT M00/M03 A3037 RMK A01 T10021027  RH  083%=      5-min Rain = 0
KEA1 151129Z 25001KT M00/M03 A3037 RMK A01 T10031027  RH  084%=      5-min Rain = 0
KEA1 151130Z 24001KT M00/M03 A3036 RMK A01 T10041029  RH  083%=      5-min Rain = 0
KEA1 151131Z 24002KT M01/M03 A3036 RMK A01 T10051029  RH  084%=      5-min Rain = 0
KEA1 151132Z 23002KT M01/M03 A3036 RMK A01 T10061029  RH  084%=      5-min Rain = 0
KEA1 151133Z 25002KT M01/M03 A3036 RMK A01 T10071029  RH  085%=      5-min Rain = 0
KEA1 151134Z 23002KT M01/M03 A3036 RMK A01 T10081031  RH  084%=      5-min Rain = 0
KEA1 151135Z 25002KT M01/M03 A3036 RMK A01 T10091031  RH  085%=      5-min Rain = 0
KEA1 151136Z 25002KT M01/M03 A3036 RMK A01 T10091031  RH  085%=      5-min Rain = 0
KEA1 151137Z 26002KT M01/M03 A3036 RMK A01 T10101031  RH  086%=      5-min Rain = 0
KEA1 151138Z 25002KT M01/M03 A3036 RMK A01 T10101030  RH  086%=      5-min Rain = 0
KEA1 151139Z 25003KT M01/M03 A3036 RMK A01 T10101030  RH  086%=      5-min Rain = 0
KEA1 151140Z 24002KT M01/M03 A3036 RMK A01 T10091030  RH  086%=      5-min Rain = 0
KEA1 151141Z 25003KT M01/M03 A3036 RMK A01 T10091031  RH  086%=      5-min Rain = 0
KEA1 151142Z 23003KT M01/M03 A3036 RMK A01 T10101030  RH  086%=      5-min Rain = 0
KEA1 151143Z 23003KT M01/M03 A3036 RMK A01 T10081027  RH  087%=      5-min Rain = 0
KEA1 151144Z 25002KT M01/M03 A3036 RMK A01 T10071026  RH  087%=      5-min Rain = 0
KEA1 151145Z 25002KT M01/M03 A3036 RMK A01 T10071026  RH  087%=      5-min Rain = 0
KEA1 151146Z 26002KT M01/M03 A3036 RMK A01 T10081028  RH  086%=      5-min Rain = 0
KEA1 151147Z 27003KT M01/M03 A3036 RMK A01 T10081029  RH  086%=      5-min Rain = 0
KEA1 151148Z 27003KT M01/M03 A3036 RMK A01 T10101032  RH  085%=      5-min Rain = 0
KEA1 151149Z 27002KT M01/M04 A3036 RMK A01 T10121035  RH  085%=      5-min Rain = 0
KEA1 151150Z 27002KT M01/M03 A3036 RMK A01 T10131034  RH  086%=      5-min Rain = 0
KEA1 151151Z 28003KT M01/M03 A3036 RMK A01 T10131034  RH  086%=      5-min Rain = 0
KEA1 151152Z 29002KT M01/M03 A3036 RMK A01 T10141034  RH  086%=      5-min Rain = 0
KEA1 151153Z 28003KT M01/M04 A3036 RMK A01 T10141035  RH  086%=      5-min Rain = 0
KEA1 151154Z 29003KT M02/M04 A3036 RMK A01 T10161037  RH  085%=      5-min Rain = 0
KEA1 151155Z 28003KT M02/M04 A3036 RMK A01 T10181039  RH  085%=      5-min Rain = 0
KEA1 151156Z 26004KT M02/M04 A3036 RMK A01 T10191039  RH  086%=      5-min Rain = 0
KEA1 151157Z 27004KT M02/M04 A3036 RMK A01 T10191039  RH  086%=      5-min Rain = 0
KEA1 151158Z 26003KT M02/M04 A3036 RMK A01 T10191037  RH  087%=      5-min Rain = 0
KEA1 151159Z 25004KT M02/M04 A3036 RMK A01 T10171035  RH  088%=      5-min Rain = 0
KEA1 151200Z 25006KT M02/M03 A3036 RMK A01 T10151032  RH  088%=      5-min Rain = 0
KEA1 151201Z 24006KT M01/M03 A3036 RMK A01 T10121029  RH  088%=      5-min Rain = 0
KEA1 151202Z 22004KT M01/M03 A3036 RMK A01 T10091026  RH  089%=      5-min Rain = 0
KEA1 151203Z 23004KT M01/M03 A3036 RMK A01 T10071025  RH  088%=      5-min Rain = 0
KEA1 151204Z 24004KT M01/M03 A3036 RMK A01 T10061026  RH  086%=      5-min Rain = 0
KEA1 151205Z 24004KT M01/M03 A3036 RMK A01 T10081032  RH  084%=      5-min Rain = 0
KEA1 151206Z 25003KT M01/M04 A3036 RMK A01 T10131039  RH  082%=      5-min Rain = 0
KEA1 151207Z 25004KT M02/M04 A3036 RMK A01 T10161043  RH  082%=      5-min Rain = 0
KEA1 151208Z 25003KT M02/M04 A3037 RMK A01 T10171041  RH  084%=      5-min Rain = 0
KEA1 151209Z 26003KT M02/M05 A3037 RMK A01 T10201045  RH  083%=      5-min Rain = 0
KEA1 151210Z 26003KT M02/M05 A3037 RMK A01 T10241050  RH  082%=      5-min Rain = 0
KEA1 151211Z 25003KT M03/M05 A3036 RMK A01 T10261051  RH  083%=      5-min Rain = 0
KEA1 151212Z 24002KT M03/M05 A3036 RMK A01 T10271049  RH  085%=      5-min Rain = 0
KEA1 151213Z 25003KT M03/M05 A3036 RMK A01 T10281050  RH  085%=      5-min Rain = 0
KEA1 151214Z 26001KT M03/M05 A3036 RMK A01 T10301051  RH  085%=      5-min Rain = 0
KEA1 151215Z 25003KT M03/M05 A3036 RMK A01 T10311052  RH  086%=      5-min Rain = 0
KEA1 151216Z 26006KT M03/M05 A3036 RMK A01 T10311051  RH  087%=      5-min Rain = 0
KEA1 151217Z 25006KT M03/M05 A3036 RMK A01 T10301046  RH  088%=      5-min Rain = 0
KEA1 151218Z 24006KT M02/M03 A3036 RMK A01 T10221033  RH  092%=      5-min Rain = 0
KEA1 151219Z 24006KT M02/M02 A3037 RMK A01 T10151024  RH  094%=      5-min Rain = 0
KEA1 151220Z 25007KT M01/M02 A3037 RMK A01 T10081017  RH  094%=      5-min Rain = 0
KEA1 151221Z 25006KT M00/M02 A3036 RMK A01 T10041017  RH  091%=      5-min Rain = 0
KEA1 151222Z 25005KT M01/M02 A3037 RMK A01 T10051023  RH  087%=      5-min Rain = 0
KEA1 151223Z 25006KT M01/M03 A3037 RMK A01 T10081032  RH  084%=      5-min Rain = 0
KEA1 151224Z 24007KT M01/M04 A3037 RMK A01 T10121036  RH  084%=      5-min Rain = 0
KEA1 151225Z 25007KT M01/M03 A3037 RMK A01 T10121034  RH  085%=      5-min Rain = 0
KEA1 151226Z 25008KT M01/M03 A3037 RMK A01 T10111031  RH  086%=      5-min Rain = 0
KEA1 151227Z 24009KT M01/M03 A3037 RMK A01 T10111032  RH  086%=      5-min Rain = 0
KEA1 151228Z 24010KT M01/M03 A3037 RMK A01 T10101030  RH  086%=      5-min Rain = 0
KEA1 151229Z 25010KT M01/M03 A3037 RMK A01 T10091030  RH  086%=      5-min Rain = 0
KEA1 151230Z 24010KT M01/M03 A3037 RMK A01 T10071028  RH  086%=      5-min Rain = 0
KEA1 151231Z 24010KT M01/M03 A3036 RMK A01 T10051026  RH  086%=      5-min Rain = 0
KEA1 151232Z 24011KT M00/M03 A3037 RMK A01 T10031025  RH  086%=      5-min Rain = 0
KEA1 151233Z 24009KT 00/M02 A3037 RMK A01 T00011019  RH  086%=      5-min Rain = 0
KEA1 151234Z 24011KT 00/M02 A3037 RMK A01 T00021021  RH  084%=      5-min Rain = 0
KEA1 151235Z 24010KT 01/M02 A3037 RMK A01 T00051016  RH  086%=      5-min Rain = 0
KEA1 151236Z 24011KT 01/M01 A3037 RMK A01 T00101011  RH  086%=      5-min Rain = 0
KEA1 151237Z 24011KT 01/M02 A3037 RMK A01 T00101016  RH  083%=      5-min Rain = 0
KEA1 151238Z 24010KT 01/M01 A3037 RMK A01 T00111014  RH  083%=      5-min Rain = 0
KEA1 151239Z 24011KT 01/M01 A3037 RMK A01 T00131014  RH  082%=      5-min Rain = 0
KEA1 151240Z 24011KT 01/M01 A3037 RMK A01 T00141012  RH  082%=      5-min Rain = 0
KEA1 151241Z 24011KT 02/M01 A3037 RMK A01 T00161010  RH  083%=      5-min Rain = 0
KEA1 151242Z 24010KT 02/M01 A3037 RMK A01 T00171011  RH  082%=      5-min Rain = 0
KEA1 151243Z 24010KT 02/M01 A3037 RMK A01 T00171010  RH  082%=      5-min Rain = 0
KEA1 151244Z 24010KT 02/M01 A3037 RMK A01 T00181009  RH  082%=      5-min Rain = 0
KEA1 151245Z 24010KT 02/M01 A3037 RMK A01 T00191010  RH  081%=      5-min Rain = 0
KEA1 151246Z 24010KT 02/M01 A3037 RMK A01 T00191009  RH  082%=      5-min Rain = 0
KEA1 151247Z 24009KT 02/M01 A3037 RMK A01 T00191010  RH  081%=      5-min Rain = 0
KEA1 151248Z 24008KT 02/M01 A3037 RMK A01 T00181013  RH  080%=      5-min Rain = 0
KEA1 151249Z 25008KT 01/M02 A3037 RMK A01 T00131022  RH  077%=      5-min Rain = 0
KEA1 151250Z 24008KT 01/M03 A3037 RMK A01 T00071028  RH  078%=      5-min Rain = 0
KEA1 151251Z 24008KT 00/M03 A3037 RMK A01 T00021030  RH  079%=      5-min Rain = 0
KEA1 151252Z 24008KT 00/03 A3037 RMK A01 T00000-26  RH  083%=      5-min Rain = 0
KEA1 151253Z 24008KT 00/M02 A3037 RMK A01 T00041016  RH  086%=      5-min Rain = 0
KEA1 151254Z 23009KT 01/M01 A3037 RMK A01 T00071014  RH  086%=      5-min Rain = 0
KEA1 151255Z 24009KT 01/M01 A3037 RMK A01 T00091012  RH  086%=      5-min Rain = 0
KEA1 151256Z 23009KT 01/M01 A3037 RMK A01 T00121010  RH  085%=      5-min Rain = 0
KEA1 151257Z 23009KT 01/M01 A3037 RMK A01 T00141010  RH  085%=      5-min Rain = 0
KEA1 151258Z 23009KT 01/M01 A3037 RMK A01 T00141010  RH  084%=      5-min Rain = 0
KEA1 151259Z 23010KT 02/M01 A3037 RMK A01 T00151009  RH  084%=      5-min Rain = 0
KEA1 151300Z 24009KT 02/M01 A3037 RMK A01 T00161009  RH  084%=      5-min Rain = 0
KEA1 151301Z 24010KT 02/M01 A3037 RMK A01 T00151014  RH  081%=      5-min Rain = 0
KEA1 151302Z 24009KT 01/M02 A3037 RMK A01 T00111021  RH  079%=      5-min Rain = 0
KEA1 151303Z 25008KT 00/M03 A3037 RMK A01 T00031033  RH  077%=      5-min Rain = 0
KEA1 151304Z 24009KT M01/M04 A3037 RMK A01 T10071042  RH  077%=      5-min Rain = 0
KEA1 151305Z 25009KT M01/M04 A3037 RMK A01 T10111041  RH  080%=      5-min Rain = 0
KEA1 151306Z 25009KT M01/M04 A3037 RMK A01 T10141040  RH  082%=      5-min Rain = 0
KEA1 151307Z 25009KT M02/M04 A3037 RMK A01 T10151039  RH  084%=      5-min Rain = 0
KEA1 151308Z 25010KT M02/M04 A3037 RMK A01 T10171040  RH  084%=      5-min Rain = 0
KEA1 151309Z 24010KT M02/M04 A3037 RMK A01 T10171038  RH  086%=      5-min Rain = 0
KEA1 151310Z 25009KT M02/M03 A3037 RMK A01 T10151033  RH  087%=      5-min Rain = 0
KEA1 151311Z 25009KT M01/M04 A3037 RMK A01 T10141035  RH  086%=      5-min Rain = 0
KEA1 151312Z 25010KT M02/M04 A3037 RMK A01 T10161037  RH  086%=      5-min Rain = 0
KEA1 151313Z 25010KT M02/M04 A3037 RMK A01 T10181039  RH  085%=      5-min Rain = 0
KEA1 151314Z 24009KT M02/M04 A3037 RMK A01 T10181039  RH  086%=      5-min Rain = 0
KEA1 151315Z 24009KT M02/M04 A3037 RMK A01 T10191040  RH  086%=      5-min Rain = 0
KEA1 151316Z 24009KT M02/M04 A3037 RMK A01 T10211041  RH  086%=      5-min Rain = 0
KEA1 151317Z 24010KT M02/M04 A3037 RMK A01 T10211040  RH  087%=      5-min Rain = 0
KEA1 151318Z 25010KT M02/M04 A3037 RMK A01 T10211039  RH  088%=      5-min Rain = 0
KEA1 151319Z 24010KT M02/M04 A3037 RMK A01 T10191036  RH  088%=      5-min Rain = 0
KEA1 151320Z 24009KT M02/M04 A3037 RMK A01 T10181035  RH  088%=      5-min Rain = 0
KEA1 151321Z 24010KT M02/M03 A3037 RMK A01 T10171033  RH  088%=      5-min Rain = 0
KEA1 151322Z 24010KT M01/M03 A3037 RMK A01 T10121028  RH  089%=      5-min Rain = 0
KEA1 151323Z 24010KT M01/M03 A3037 RMK A01 T10111029  RH  088%=      5-min Rain = 0
KEA1 151324Z 24009KT M01/M03 A3037 RMK A01 T10081026  RH  088%=      5-min Rain = 0
KEA1 151325Z 24010KT M01/M03 A3037 RMK A01 T10071027  RH  087%=      5-min Rain = 0
KEA1 151326Z 24010KT M01/M02 A3037 RMK A01 T10051023  RH  087%=      5-min Rain = 0
KEA1 151327Z 24010KT M00/M02 A3037 RMK A01 T10011021  RH  087%=      5-min Rain = 0
KEA1 151328Z 24010KT 00/02 A3036 RMK A01 T00-00-23  RH  085%=      5-min Rain = 0
KEA1 151329Z 24010KT 00/M02 A3037 RMK A01 T00021021  RH  084%=      5-min Rain = 0
KEA1 151330Z 24010KT 00/M02 A3037 RMK A01 T00021024  RH  083%=      5-min Rain = 0
KEA1 151331Z 24010KT 00/03 A3037 RMK A01 T00-00-28  RH  082%=      5-min Rain = 0
KEA1 151332Z 24011KT M00/M03 A3036 RMK A01 T10021029  RH  082%=      5-min Rain = 0
KEA1 151333Z 24010KT M00/M02 A3036 RMK A01 T10011024  RH  084%=      5-min Rain = 0
KEA1 151334Z 24010KT 00/03 A3036 RMK A01 T00-00-25  RH  084%=      5-min Rain = 0
KEA1 151335Z 24010KT 00/02 A3036 RMK A01 T00000-24  RH  084%=      5-min Rain = 0
KEA1 151336Z 24009KT 00/M02 A3036 RMK A01 T00011022  RH  084%=      5-min Rain = 0
KEA1 151337Z 24010KT 00/M02 A3036 RMK A01 T00041017  RH  085%=      5-min Rain = 0
KEA1 151338Z 24011KT 01/M01 A3036 RMK A01 T00071014  RH  086%=      5-min Rain = 0
KEA1 151339Z 23011KT 01/M01 A3036 RMK A01 T00131008  RH  086%=      5-min Rain = 0
KEA1 151340Z 23009KT 02/M00 A3036 RMK A01 T00181003  RH  086%=      5-min Rain = 0
KEA1 151341Z 23008KT 02/M00 A3036 RMK A01 T00201003  RH  085%=      5-min Rain = 0
KEA1 151342Z 22007KT 02/M00 A3036 RMK A01 T00211003  RH  085%=      5-min Rain = 0
KEA1 151343Z 23007KT 02/M00 A3036 RMK A01 T00211003  RH  084%=      5-min Rain = 0
KEA1 151344Z 23008KT 02/M00 A3036 RMK A01 T00211003  RH  084%=      5-min Rain = 0
KEA1 151345Z 23006KT 02/M00 A3036 RMK A01 T00221002  RH  084%=      5-min Rain = 0
KEA1 151346Z 23007KT 02/M00 A3036 RMK A01 T00221002  RH  084%=      5-min Rain = 0
KEA1 151347Z 23009KT 02/M00 A3036 RMK A01 T00231002  RH  084%=      5-min Rain = 0
KEA1 151348Z 22007KT 02/M00 A3036 RMK A01 T00241001  RH  083%=      5-min Rain = 0
KEA1 151349Z 22008KT 03/M00 A3036 RMK A01 T00261001  RH  082%=      5-min Rain = 0
KEA1 151350Z 22007KT 03/00 A3036 RMK A01 T00280000  RH  082%=      5-min Rain = 0
KEA1 151351Z 22007KT 03/00 A3036 RMK A01 T002800-0  RH  081%=      5-min Rain = 0
KEA1 151352Z 22008KT 03/M00 A3036 RMK A01 T00281002  RH  080%=      5-min Rain = 0
KEA1 151353Z 23008KT 03/M00 A3036 RMK A01 T00281002  RH  080%=      5-min Rain = 0
KEA1 151354Z 23009KT 03/M00 A3036 RMK A01 T00291001  RH  081%=      5-min Rain = 0
KEA1 151355Z 23008KT 03/M00 A3036 RMK A01 T00281002  RH  081%=      5-min Rain = 0
KEA1 151356Z 23007KT 03/M00 A3036 RMK A01 T00281002  RH  081%=      5-min Rain = 0
KEA1 151357Z 23008KT 03/M00 A3036 RMK A01 T00271002  RH  081%=      5-min Rain = 0
KEA1 151358Z 23007KT 03/M00 A3036 RMK A01 T00271003  RH  081%=      5-min Rain = 0
KEA1 151359Z 23008KT 03/M00 A3036 RMK A01 T00271003  RH  081%=      5-min Rain = 0
KEA1 151400Z 23008KT 03/M00 A3036 RMK A01 T00271002  RH  081%=      5-min Rain = 0
KEA1 151401Z 23009KT 03/M00 A3036 RMK A01 T00281003  RH  080%=      5-min Rain = 0
KEA1 151402Z 23008KT 03/M00 A3037 RMK A01 T00281004  RH  080%=      5-min Rain = 0
KEA1 151403Z 24010KT 03/M00 A3037 RMK A01 T00281003  RH  080%=      5-min Rain = 0
KEA1 151404Z 24011KT 03/M00 A3037 RMK A01 T00291004  RH  079%=      5-min Rain = 0
KEA1 151405Z 24010KT 03/M01 A3037 RMK A01 T00291006  RH  078%=      5-min Rain = 0
KEA1 151406Z 24011KT 03/M01 A3037 RMK A01 T00271012  RH  076%=      5-min Rain = 0
KEA1 151407Z 24010KT 03/M01 A3037 RMK A01 T00251011  RH  077%=      5-min Rain = 0
KEA1 151408Z 24010KT 02/M01 A3037 RMK A01 T00241013  RH  076%=      5-min Rain = 0
KEA1 151409Z 23010KT 02/M01 A3037 RMK A01 T00231014  RH  077%=      5-min Rain = 0
KEA1 151410Z 23010KT 02/M01 A3037 RMK A01 T00241011  RH  078%=      5-min Rain = 0
KEA1 151411Z 23010KT 03/M01 A3037 RMK A01 T00261007  RH  079%=      5-min Rain = 0
KEA1 151412Z 22010G15KT 03/M00 A3037 RMK A01 T00291004  RH  079%=      5-min Rain = 0
KEA1 151413Z 23008KT 03/M00 A3037 RMK A01 T00311004  RH  078%=      5-min Rain = 0
KEA1 151414Z 22009KT 03/M00 A3036 RMK A01 T00321004  RH  078%=      5-min Rain = 0
KEA1 151415Z 23008KT 03/M00 A3037 RMK A01 T00331002  RH  078%=      5-min Rain = 0
KEA1 151416Z 23009KT 03/M00 A3036 RMK A01 T00341001  RH  077%=      5-min Rain = 0
KEA1 151417Z 23011KT 04/M00 A3036 RMK A01 T00351001  RH  078%=      5-min Rain = 0
KEA1 151418Z 23009KT 04/00 A3036 RMK A01 T00370001  RH  077%=      5-min Rain = 0
KEA1 151419Z 23009KT 04/M00 A3036 RMK A01 T00381001  RH  076%=      5-min Rain = 0
KEA1 151420Z 23010KT 04/M00 A3036 RMK A01 T00371002  RH  076%=      5-min Rain = 0
KEA1 151421Z 23010KT 04/00 A3036 RMK A01 T00390001  RH  076%=      5-min Rain = 0
KEA1 151422Z 23010KT 04/00 A3036 RMK A01 T00410000  RH  075%=      5-min Rain = 0
KEA1 151423Z 24009KT 04/00 A3036 RMK A01 T004100-0  RH  074%=      5-min Rain = 0
KEA1 151424Z 24009KT 04/00 A3036 RMK A01 T004200-0  RH  074%=      5-min Rain = 0
KEA1 151425Z 23010KT 04/M00 A3036 RMK A01 T00421001  RH  074%=      5-min Rain = 0
KEA1 151426Z 23009KT 04/M00 A3036 RMK A01 T00421002  RH  073%=      5-min Rain = 0
KEA1 151427Z 23009KT 04/M00 A3036 RMK A01 T00421002  RH  073%=      5-min Rain = 0
KEA1 151428Z 23011KT 04/M00 A3036 RMK A01 T00421003  RH  073%=      5-min Rain = 0
KEA1 151429Z 23010KT 04/M00 A3036 RMK A01 T00431001  RH  073%=      5-min Rain = 0
KEA1 151430Z 23011KT 05/00 A3036 RMK A01 T00450001  RH  073%=      5-min Rain = 0
KEA1 151431Z 22011KT 05/00 A3036 RMK A01 T00480002  RH  072%=      5-min Rain = 0
KEA1 151432Z 22010KT 05/00 A3036 RMK A01 T00500003  RH  072%=      5-min Rain = 0
KEA1 151433Z 22011KT 05/00 A3036 RMK A01 T00520004  RH  071%=      5-min Rain = 0
KEA1 151434Z 23009KT 05/01 A3036 RMK A01 T00530005  RH  071%=      5-min Rain = 0
KEA1 151435Z 22012KT 05/01 A3036 RMK A01 T00540005  RH  070%=      5-min Rain = 0
KEA1 151436Z 23011KT 06/00 A3036 RMK A01 T00550003  RH  069%=      5-min Rain = 0
KEA1 151437Z 23011KT 06/01 A3036 RMK A01 T00560006  RH  070%=      5-min Rain = 0
KEA1 151438Z 23009KT 06/01 A3036 RMK A01 T00560007  RH  071%=      5-min Rain = 0
KEA1 151439Z 23011KT 06/00 A3036 RMK A01 T00560004  RH  069%=      5-min Rain = 0
KEA1 151440Z 22011KT 06/00 A3036 RMK A01 T00560003  RH  068%=      5-min Rain = 0
KEA1 151441Z 23010KT 06/00 A3036 RMK A01 T00570002  RH  068%=      5-min Rain = 0
KEA1 151442Z 22010KT 06/00 A3036 RMK A01 T00580003  RH  067%=      5-min Rain = 0
KEA1 151443Z 22009KT 06/00 A3036 RMK A01 T00600002  RH  067%=      5-min Rain = 0
KEA1 151444Z 22009KT 06/00 A3036 RMK A01 T00600002  RH  066%=      5-min Rain = 0
KEA1 151445Z 22008KT 06/00 A3036 RMK A01 T00610002  RH  066%=      5-min Rain = 0
KEA1 151446Z 23008KT 06/00 A3036 RMK A01 T00620003  RH  066%=      5-min Rain = 0
KEA1 151447Z 22010KT 06/00 A3036 RMK A01 T00630003  RH  066%=      5-min Rain = 0
KEA1 151448Z 22013KT 06/00 A3036 RMK A01 T00640002  RH  064%=      5-min Rain = 0
KEA1 151449Z 23011KT 06/00 A3036 RMK A01 T00640001  RH  064%=      5-min Rain = 0
KEA1 151450Z 23010KT 06/00 A3036 RMK A01 T00640002  RH  064%=      5-min Rain = 0
KEA1 151451Z 22009KT 06/00 A3036 RMK A01 T00640003  RH  065%=      5-min Rain = 0
KEA1 151452Z 23012KT 07/00 A3036 RMK A01 T00650002  RH  064%=      5-min Rain = 0
KEA1 151453Z 22009KT 07/00 A3036 RMK A01 T00650003  RH  064%=      5-min Rain = 0
KEA1 151454Z 22009KT 07/00 A3036 RMK A01 T00660004  RH  064%=      5-min Rain = 0
KEA1 151455Z 22008KT 07/00 A3036 RMK A01 T00670003  RH  063%=      5-min Rain = 0
KEA1 151456Z 21008KT 07/00 A3036 RMK A01 T00680001  RH  062%=      5-min Rain = 0
KEA1 151457Z 21010KT 07/M00 A3036 RMK A01 T00691002  RH  061%=      5-min Rain = 0
KEA1 151458Z 21011KT 07/M01 A3036 RMK A01 T00681005  RH  059%=      5-min Rain = 0
KEA1 151459Z 22010KT 07/M00 A3036 RMK A01 T00681004  RH  060%=      5-min Rain = 0
KEA1 151500Z 21010KT 07/M00 A3036 RMK A01 T00681004  RH  060%=      5-min Rain = 0
KEA1 151501Z 22009KT 07/M00 A3036 RMK A01 T00691004  RH  060%=      5-min Rain = 0
KEA1 151502Z 21008KT 07/M00 A3036 RMK A01 T00701003  RH  060%=      5-min Rain = 0
KEA1 151503Z 21009KT 07/M00 A3036 RMK A01 T00711003  RH  059%=      5-min Rain = 0
KEA1 151504Z 20011KT 07/M01 A3036 RMK A01 T00721006  RH  058%=      5-min Rain = 0
KEA1 151505Z 20010KT 07/M01 A3036 RMK A01 T00701009  RH  057%=      5-min Rain = 0
KEA1 151506Z 21011KT 07/M01 A3036 RMK A01 T00701008  RH  058%=      5-min Rain = 0
KEA1 151507Z 20009KT 07/M01 A3036 RMK A01 T00701007  RH  058%=      5-min Rain = 0
KEA1 151508Z 20010KT 07/M01 A3036 RMK A01 T00701008  RH  057%=      5-min Rain = 0
KEA1 151509Z 20011KT 07/M01 A3036 RMK A01 T00711008  RH  057%=      5-min Rain = 0
KEA1 151510Z 21010KT 07/M01 A3036 RMK A01 T00711009  RH  057%=      5-min Rain = 0
KEA1 151511Z 20010KT 07/M01 A3036 RMK A01 T00731006  RH  057%=      5-min Rain = 0
KEA1 151512Z 20011KT 07/M01 A3036 RMK A01 T00741008  RH  056%=      5-min Rain = 0
KEA1 151513Z 20012KT 07/M01 A3035 RMK A01 T00741007  RH  056%=      5-min Rain = 0
KEA1 151514Z 21011KT 07/M01 A3036 RMK A01 T00731007  RH  057%=      5-min Rain = 0
KEA1 151515Z 21010KT 07/M00 A3036 RMK A01 T00741004  RH  057%=      5-min Rain = 0
KEA1 151516Z 20011KT 08/M00 A3036 RMK A01 T00761004  RH  057%=      5-min Rain = 0
KEA1 151517Z 21011KT 08/M01 A3036 RMK A01 T00761006  RH  056%=      5-min Rain = 0
KEA1 151518Z 21012KT 08/M01 A3036 RMK A01 T00751006  RH  056%=      5-min Rain = 0
KEA1 151519Z 20013KT 08/M01 A3036 RMK A01 T00761007  RH  056%=      5-min Rain = 0
KEA1 151520Z 20013KT 08/M01 A3036 RMK A01 T00761008  RH  055%=      5-min Rain = 0
KEA1 151521Z 20013KT 08/M01 A3036 RMK A01 T00771008  RH  055%=      5-min Rain = 0
KEA1 151522Z 20012KT 08/M01 A3036 RMK A01 T00771009  RH  055%=      5-min Rain = 0
KEA1 151523Z 21011KT 08/M01 A3036 RMK A01 T00771007  RH  055%=      5-min Rain = 0
KEA1 151524Z 20009KT 08/M01 A3036 RMK A01 T00771008  RH  055%=      5-min Rain = 0
KEA1 151525Z 20011KT 08/M01 A3036 RMK A01 T00791005  RH  055%=      5-min Rain = 0
KEA1 151526Z 20013KT 08/M01 A3036 RMK A01 T00801007  RH  054%=      5-min Rain = 0
KEA1 151527Z 20010KT 08/M01 A3036 RMK A01 T00801007  RH  054%=      5-min Rain = 0
KEA1 151528Z 20012KT 08/M01 A3036 RMK A01 T00811006  RH  054%=      5-min Rain = 0
KEA1 151529Z 20010KT 08/M01 A3036 RMK A01 T00821007  RH  054%=      5-min Rain = 0
KEA1 151530Z 20011KT 08/M01 A3036 RMK A01 T00821007  RH  053%=      5-min Rain = 0
KEA1 151531Z 20012KT 08/M01 A3036 RMK A01 T00831008  RH  053%=      5-min Rain = 0
KEA1 151532Z 21012KT 08/M01 A3036 RMK A01 T00821005  RH  054%=      5-min Rain = 0
KEA1 151533Z 20013KT 08/M01 A3036 RMK A01 T00841007  RH  053%=      5-min Rain = 0
KEA1 151534Z 20015KT 08/M01 A3035 RMK A01 T00841007  RH  052%=      5-min Rain = 0
KEA1 151535Z 21015KT 08/M01 A3035 RMK A01 T00841009  RH  052%=      5-min Rain = 0
KEA1 151536Z 21013KT 08/M01 A3035 RMK A01 T00831008  RH  053%=      5-min Rain = 0
KEA1 151537Z 21015KT 08/M01 A3036 RMK A01 T00841008  RH  052%=      5-min Rain = 0
KEA1 151538Z 20014KT 08/M01 A3035 RMK A01 T00841010  RH  052%=      5-min Rain = 0
KEA1 151539Z 20013KT 08/M01 A3035 RMK A01 T00841010  RH  051%=      5-min Rain = 0
KEA1 151540Z 20012KT 09/M01 A3035 RMK A01 T00861010  RH  051%=      5-min Rain = 0
KEA1 151541Z 20014KT 09/M01 A3035 RMK A01 T00871008  RH  051%=      5-min Rain = 0
KEA1 151542Z 21013KT 09/M01 A3035 RMK A01 T00881009  RH  051%=      5-min Rain = 0
KEA1 151543Z 21012KT 09/M01 A3035 RMK A01 T00881009  RH  051%=      5-min Rain = 0
KEA1 151544Z 21012KT 09/M01 A3035 RMK A01 T00901007  RH  051%=      5-min Rain = 0
KEA1 151545Z 20013KT 09/M01 A3035 RMK A01 T00911008  RH  050%=      5-min Rain = 0
KEA1 151546Z 20012KT 09/M01 A3035 RMK A01 T00911009  RH  050%=      5-min Rain = 0
KEA1 151547Z 20012KT 09/M01 A3035 RMK A01 T00921009  RH  049%=      5-min Rain = 0
KEA1 151548Z 21012KT 09/M01 A3035 RMK A01 T00921008  RH  049%=      5-min Rain = 0
KEA1 151549Z 21012KT 09/M01 A3035 RMK A01 T00931008  RH  049%=      5-min Rain = 0
KEA1 151550Z 20013KT 09/M01 A3035 RMK A01 T00941009  RH  048%=      5-min Rain = 0
KEA1 151551Z 20012KT 09/M01 A3035 RMK A01 T00941010  RH  048%=      5-min Rain = 0
KEA1 151552Z 21012KT 09/M01 A3035 RMK A01 T00931011  RH  048%=      5-min Rain = 0
KEA1 151553Z 21012KT 10/M01 A3035 RMK A01 T00951012  RH  047%=      5-min Rain = 0
KEA1 151554Z 21011KT 10/M01 A3035 RMK A01 T00951012  RH  047%=      5-min Rain = 0
KEA1 151555Z 21010KT 10/M01 A3035 RMK A01 T00951010  RH  048%=      5-min Rain = 0
KEA1 151556Z 21010KT 10/M01 A3035 RMK A01 T00961010  RH  048%=      5-min Rain = 0
KEA1 151557Z 21011KT 10/M01 A3035 RMK A01 T00981010  RH  047%=      5-min Rain = 0
KEA1 151558Z 21011KT 10/M01 A3035 RMK A01 T00991012  RH  046%=      5-min Rain = 0
KEA1 151559Z 21012KT 10/M01 A3035 RMK A01 T00991013  RH  046%=      5-min Rain = 0
KEA1 151600Z 20011KT 10/M01 A3035 RMK A01 T01011012  RH  045%=      5-min Rain = 0
KEA1 151601Z 20013KT 10/M02 A3035 RMK A01 T01021015  RH  044%=      5-min Rain = 0
KEA1 151602Z 21011KT 10/M02 A3035 RMK A01 T01021015  RH  044%=      5-min Rain = 0
KEA1 151603Z 20013KT 11/M02 A3035 RMK A01 T01051015  RH  043%=      5-min Rain = 0
KEA1 151604Z 20013KT 11/M02 A3035 RMK A01 T01051017  RH  042%=      5-min Rain = 0
KEA1 151605Z 20011KT 11/M02 A3035 RMK A01 T01061016  RH  043%=      5-min Rain = 0
KEA1 151606Z 20014KT 11/M02 A3035 RMK A01 T01071016  RH  042%=      5-min Rain = 0
KEA1 151607Z 19012KT 11/M02 A3035 RMK A01 T01081019  RH  041%=      5-min Rain = 0
KEA1 151608Z 20013KT 11/M02 A3035 RMK A01 T01091018  RH  041%=      5-min Rain = 0
KEA1 151609Z 21014KT 11/M02 A3035 RMK A01 T01091020  RH  041%=      5-min Rain = 0
KEA1 151610Z 20013KT 11/M02 A3035 RMK A01 T01081019  RH  041%=      5-min Rain = 0
KEA1 151611Z 19012KT 11/M02 A3035 RMK A01 T01081019  RH  041%=      5-min Rain = 0
KEA1 151612Z 21012G20KT 11/M02 A3035 RMK A01 T01091017  RH  041%=      5-min Rain = 0
KEA1 151613Z 21015KT 11/M02 A3035 RMK A01 T01121019  RH  040%=      5-min Rain = 0
KEA1 151614Z 19014KT 11/M02 A3035 RMK A01 T01131023  RH  039%=      5-min Rain = 0
KEA1 151615Z 19013KT 11/M02 A3035 RMK A01 T01131021  RH  039%=      5-min Rain = 0
KEA1 151616Z 20011KT 11/M02 A3035 RMK A01 T01141019  RH  040%=      5-min Rain = 0
KEA1 151617Z 20010G15KT 12/M02 A3035 RMK A01 T01171015  RH  040%=      5-min Rain = 0
KEA1 151618Z 19014KT 12/M02 A3035 RMK A01 T01191019  RH  038%=      5-min Rain = 0
KEA1 151619Z 19014KT 12/M03 A3035 RMK A01 T01201025  RH  036%=      5-min Rain = 0
KEA1 151620Z 21014G19KT 12/M03 A3035 RMK A01 T01211025  RH  036%=      5-min Rain = 0
KEA1 151621Z 19014KT 12/M02 A3035 RMK A01 T01221021  RH  037%=      5-min Rain = 0
KEA1 151622Z 19016KT 12/M03 A3034 RMK A01 T01221028  RH  035%=      5-min Rain = 0
KEA1 151623Z 19016KT 12/M03 A3034 RMK A01 T01221030  RH  035%=      5-min Rain = 0
KEA1 151624Z 19015KT 12/M03 A3035 RMK A01 T01211030  RH  035%=      5-min Rain = 0
KEA1 151625Z 20017KT 12/M03 A3034 RMK A01 T01211030  RH  035%=      5-min Rain = 0
KEA1 151626Z 20016KT 12/M03 A3034 RMK A01 T01211032  RH  034%=      5-min Rain = 0
KEA1 151627Z 20013KT 12/M03 A3035 RMK A01 T01201030  RH  035%=      5-min Rain = 0
KEA1 151628Z 20015KT 12/M03 A3035 RMK A01 T01211031  RH  035%=      5-min Rain = 0
KEA1 151629Z 19014G21KT 12/M03 A3034 RMK A01 T01211030  RH  035%=      5-min Rain = 0
KEA1 151630Z 19016KT 12/M03 A3034 RMK A01 T01221029  RH  035%=      5-min Rain = 0
KEA1 151631Z 20015G20KT 12/M03 A3034 RMK A01 T01231031  RH  034%=      5-min Rain = 0
KEA1 151632Z 21015KT 12/M03 A3034 RMK A01 T01221030  RH  035%=      5-min Rain = 0
KEA1 151633Z 20014KT 12/M03 A3034 RMK A01 T01221027  RH  035%=      5-min Rain = 0
KEA1 151634Z 20013KT 13/M02 A3034 RMK A01 T01251022  RH  036%=      5-min Rain = 0
KEA1 151635Z 19013G18KT 13/M02 A3034 RMK A01 T01271023  RH  035%=      5-min Rain = 0
KEA1 151636Z 18015KT 13/M02 A3034 RMK A01 T01271024  RH  035%=      5-min Rain = 0
KEA1 151637Z 18013KT 13/M03 A3034 RMK A01 T01251026  RH  035%=      5-min Rain = 0
KEA1 151638Z 19014KT 13/M02 A3034 RMK A01 T01251024  RH  036%=      5-min Rain = 0
KEA1 151639Z 19017KT 13/M02 A3034 RMK A01 T01281023  RH  035%=      5-min Rain = 0
KEA1 151640Z 18015KT 13/M03 A3034 RMK A01 T01261026  RH  035%=      5-min Rain = 0
KEA1 151641Z 19015KT 13/M03 A3034 RMK A01 T01251025  RH  035%=      5-min Rain = 0
KEA1 151642Z 18015KT 13/M03 A3034 RMK A01 T01251027  RH  035%=      5-min Rain = 0
KEA1 151643Z 19016KT 12/M02 A3034 RMK A01 T01241024  RH  035%=      5-min Rain = 0
KEA1 151644Z 19015KT 12/M02 A3034 RMK A01 T01241024  RH  036%=      5-min Rain = 0
KEA1 151645Z 19013KT 13/M02 A3034 RMK A01 T01251022  RH  036%=      5-min Rain = 0
KEA1 151646Z 19015KT 13/M02 A3034 RMK A01 T01291021  RH  035%=      5-min Rain = 0
KEA1 151647Z 18014KT 13/M02 A3034 RMK A01 T01301024  RH  034%=      5-min Rain = 0
KEA1 151648Z 19013KT 13/M02 A3034 RMK A01 T01301024  RH  034%=      5-min Rain = 0
KEA1 151649Z 19016G21KT 13/M03 A3034 RMK A01 T01311026  RH  034%=      5-min Rain = 0
KEA1 151650Z 19015KT 13/M03 A3034 RMK A01 T01291031  RH  033%=      5-min Rain = 0
KEA1 151651Z 20013KT 13/M03 A3034 RMK A01 T01271031  RH  033%=      5-min Rain = 0
KEA1 151652Z 19015KT 13/M03 A3034 RMK A01 T01281030  RH  033%=      5-min Rain = 0
KEA1 151653Z 19016KT 13/M03 A3034 RMK A01 T01321029  RH  032%=      5-min Rain = 0
KEA1 151654Z 18017KT 13/M03 A3034 RMK A01 T01321032  RH  032%=      5-min Rain = 0
KEA1 151655Z 19017KT 13/M03 A3033 RMK A01 T01301033  RH  032%=      5-min Rain = 0
KEA1 151656Z 20018KT 13/M03 A3033 RMK A01 T01291034  RH  032%=      5-min Rain = 0
KEA1 151657Z 19015KT 13/M04 A3033 RMK A01 T01291035  RH  032%=      5-min Rain = 0
KEA1 151658Z 19016KT 13/M03 A3033 RMK A01 T01301033  RH  032%=      5-min Rain = 0
KEA1 151659Z 19015KT 13/M03 A3033 RMK A01 T01341031  RH  032%=      5-min Rain = 0
KEA1 151700Z 19018KT 14/M03 A3033 RMK A01 T01351031  RH  031%=      5-min Rain = 0
KEA1 151701Z 19015KT 13/M03 A3033 RMK A01 T01341030  RH  032%=      5-min Rain = 0
KEA1 151702Z 19015KT 13/M03 A3033 RMK A01 T01341030  RH  032%=      5-min Rain = 0
KEA1 151703Z 18016KT 14/M03 A3033 RMK A01 T01361028  RH  032%=      5-min Rain = 0
KEA1 151704Z 19015KT 14/M03 A3033 RMK A01 T01381029  RH  031%=      5-min Rain = 0
KEA1 151705Z 19017KT 14/M03 A3033 RMK A01 T01391028  RH  031%=      5-min Rain = 0
KEA1 151706Z 18016KT 14/M03 A3033 RMK A01 T01391029  RH  031%=      5-min Rain = 0
KEA1 151707Z 18014KT 14/M03 A3033 RMK A01 T01371030  RH  031%=      5-min Rain = 0
KEA1 151708Z 19015KT 14/M03 A3033 RMK A01 T01381028  RH  031%=      5-min Rain = 0
KEA1 151709Z 18013KT 14/M03 A3033 RMK A01 T01401027  RH  031%=      5-min Rain = 0
KEA1 151710Z 18014KT 14/M03 A3033 RMK A01 T01421026  RH  031%=      5-min Rain = 0
KEA1 151711Z 20014KT 14/M03 A3033 RMK A01 T01421027  RH  031%=      5-min Rain = 0
KEA1 151712Z 20014KT 14/M03 A3033 RMK A01 T01421027  RH  031%=      5-min Rain = 0
KEA1 151713Z 19017KT 14/M03 A3033 RMK A01 T01421030  RH  030%=      5-min Rain = 0
KEA1 151714Z 18016KT 14/M03 A3033 RMK A01 T01411031  RH  030%=      5-min Rain = 0
KEA1 151715Z 18015G21KT 14/M03 A3032 RMK A01 T01431032  RH  030%=      5-min Rain = 0
KEA1 151716Z 18017KT 14/M03 A3033 RMK A01 T01431032  RH  030%=      5-min Rain = 0
KEA1 151717Z 19016KT 14/M03 A3032 RMK A01 T01421032  RH  030%=      5-min Rain = 0
KEA1 151718Z 18014KT 14/M03 A3032 RMK A01 T01431033  RH  030%=      5-min Rain = 0
KEA1 151719Z 19014KT 15/M03 A3032 RMK A01 T01451033  RH  029%=      5-min Rain = 0
KEA1 151720Z 19017KT 15/M03 A3032 RMK A01 T01481032  RH  029%=      5-min Rain = 0
KEA1 151721Z 19016G21KT 15/M04 A3032 RMK A01 T01471035  RH  028%=      5-min Rain = 0
KEA1 151722Z 19019KT 15/M04 A3032 RMK A01 T01461036  RH  028%=      5-min Rain = 0
KEA1 151723Z 18018KT 14/M04 A3032 RMK A01 T01441037  RH  028%=      5-min Rain = 0
KEA1 151724Z 19015KT 14/M04 A3032 RMK A01 T01431036  RH  029%=      5-min Rain = 0
KEA1 151725Z 19018KT 14/M03 A3032 RMK A01 T01441034  RH  029%=      5-min Rain = 0
KEA1 151726Z 19016KT 14/M04 A3032 RMK A01 T01441035  RH  029%=      5-min Rain = 0
KEA1 151727Z 19020KT 15/M04 A3032 RMK A01 T01471036  RH  028%=      5-min Rain = 0
KEA1 151728Z 18019KT 15/M04 A3032 RMK A01 T01461036  RH  028%=      5-min Rain = 0
KEA1 151729Z 18020KT 15/M04 A3032 RMK A01 T01461038  RH  028%=      5-min Rain = 0
KEA1 151730Z 18022KT 14/M04 A3031 RMK A01 T01421040  RH  028%=      5-min Rain = 0
KEA1 151731Z 19020KT 14/M04 A3031 RMK A01 T01421040  RH  028%=      5-min Rain = 0
KEA1 151732Z 20018G23KT 14/M04 A3031 RMK A01 T01421040  RH  028%=      5-min Rain = 0
KEA1 151733Z 19017G22KT 14/M04 A3032 RMK A01 T01441037  RH  028%=      5-min Rain = 0
KEA1 151734Z 19021KT 15/M04 A3031 RMK A01 T01481039  RH  027%=      5-min Rain = 0
KEA1 151735Z 20019KT 15/M04 A3031 RMK A01 T01461039  RH  028%=      5-min Rain = 0
KEA1 151736Z 19019G24KT 15/M04 A3031 RMK A01 T01481037  RH  028%=      5-min Rain = 0
KEA1 151737Z 19017KT 15/M04 A3031 RMK A01 T01471037  RH  028%=      5-min Rain = 0
KEA1 151738Z 19017KT 15/M04 A3031 RMK A01 T01471035  RH  028%=      5-min Rain = 0
KEA1 151739Z 20020KT 15/M04 A3031 RMK A01 T01481036  RH  028%=      5-min Rain = 0
KEA1 151740Z 20018KT 15/M04 A3031 RMK A01 T01471037  RH  028%=      5-min Rain = 0
KEA1 151741Z 20017KT 15/M04 A3031 RMK A01 T01481036  RH  028%=      5-min Rain = 0
KEA1 151742Z 20017KT 15/M04 A3031 RMK A01 T01491035  RH  028%=      5-min Rain = 0
KEA1 151743Z 20018KT 15/M03 A3031 RMK A01 T01481034  RH  028%=      5-min Rain = 0
KEA1 151744Z 19019KT 15/M03 A3031 RMK A01 T01501034  RH  028%=      5-min Rain = 0
KEA1 151745Z 19019G24KT 15/M04 A3031 RMK A01 T01491036  RH  028%=      5-min Rain = 0
KEA1 151746Z 19017KT 15/M04 A3031 RMK A01 T01481035  RH  028%=      5-min Rain = 0
KEA1 151747Z 20016G21KT 15/M03 A3031 RMK A01 T01491034  RH  028%=      5-min Rain = 0
KEA1 151748Z 20017KT 15/M04 A3031 RMK A01 T01501035  RH  028%=      5-min Rain = 0
KEA1 151749Z 20018KT 15/M04 A3031 RMK A01 T01501035  RH  028%=      5-min Rain = 0
KEA1 151750Z 18018KT 15/M03 A3031 RMK A01 T01501033  RH  028%=      5-min Rain = 0
KEA1 151751Z 20018KT 15/M04 A303 RMK A01 T01501035  RH  028%=      5-min Rain = 0
KEA1 151752Z 20017KT 15/M04 A303 RMK A01 T01501036  RH  027%=      5-min Rain = 0
KEA1 151753Z 18018KT 15/M03 A3031 RMK A01 T01521033  RH  028%=      5-min Rain = 0
KEA1 151754Z 20015G21KT 15/M04 A3031 RMK A01 T01531035  RH  027%=      5-min Rain = 0
KEA1 151755Z 21017G22KT 16/M04 A303 RMK A01 T01551035  RH  027%=      5-min Rain = 0
KEA1 151756Z 19020KT 16/M04 A303 RMK A01 T01571038  RH  026%=      5-min Rain = 0
KEA1 151757Z 18021KT 16/M04 A303 RMK A01 T01561038  RH  026%=      5-min Rain = 0
KEA1 151758Z 18020KT 15/M04 A303 RMK A01 T01541040  RH  026%=      5-min Rain = 0
KEA1 151759Z 19023KT 15/M04 A303 RMK A01 T01531042  RH  026%=      5-min Rain = 0
KEA1 151800Z 19021KT 15/M04 A303 RMK A01 T01521042  RH  026%=      5-min Rain = 0
KEA1 151801Z 18018KT 15/M04 A303 RMK A01 T01521041  RH  026%=      5-min Rain = 0
KEA1 151802Z 19019KT 15/M04 A303 RMK A01 T01541039  RH  026%=      5-min Rain = 0
KEA1 151803Z 20019KT 16/M04 A303 RMK A01 T01571038  RH  026%=      5-min Rain = 0
KEA1 151804Z 19023KT 16/M04 A303 RMK A01 T01561040  RH  026%=      5-min Rain = 0
KEA1 151805Z 20021KT 16/M04 A303 RMK A01 T01551041  RH  026%=      5-min Rain = 0
KEA1 151806Z 20019KT 16/M04 A303 RMK A01 T01551042  RH  025%=      5-min Rain = 0
KEA1 151807Z 19016G22KT 16/M04 A303 RMK A01 T01561040  RH  026%=      5-min Rain = 0
KEA1 151808Z 18020KT 16/M04 A303 RMK A01 T01611035  RH  026%=      5-min Rain = 0
KEA1 151809Z 19018KT 16/M04 A303 RMK A01 T01611039  RH  025%=      5-min Rain = 0
KEA1 151810Z 19017KT 16/M04 A303 RMK A01 T01591037  RH  026%=      5-min Rain = 0
KEA1 151811Z 19021G26KT 16/M04 A303 RMK A01 T01581037  RH  026%=      5-min Rain = 0
KEA1 151812Z 19021KT 16/M04 A303 RMK A01 T01551039  RH  026%=      5-min Rain = 0
KEA1 151813Z 20019KT 16/M04 A303 RMK A01 T01551038  RH  026%=      5-min Rain = 0
KEA1 151814Z 19021KT 15/M04 A3029 RMK A01 T01531038  RH  026%=      5-min Rain = 0
KEA1 151815Z 18020KT 15/M04 A3029 RMK A01 T01531038  RH  027%=      5-min Rain = 0
KEA1 151816Z 19019KT 15/M04 A3029 RMK A01 T01531038  RH  027%=      5-min Rain = 0
KEA1 151817Z 19021KT 15/M04 A3029 RMK A01 T01531039  RH  026%=      5-min Rain = 0
KEA1 151818Z 19020KT 15/M04 A3029 RMK A01 T01531039  RH  026%=      5-min Rain = 0
KEA1 151819Z 19021KT 16/M04 A3029 RMK A01 T01551037  RH  026%=      5-min Rain = 0
KEA1 151820Z 19018KT 16/M04 A3029 RMK A01 T01571037  RH  026%=      5-min Rain = 0
KEA1 151821Z 21018KT 16/M04 A3029 RMK A01 T01591037  RH  026%=      5-min Rain = 0
KEA1 151822Z 20020G25KT 16/M04 A3029 RMK A01 T01601039  RH  025%=      5-min Rain = 0
KEA1 151823Z 19018KT 16/M04 A3029 RMK A01 T01601039  RH  025%=      5-min Rain = 0
KEA1 151824Z 19018G24KT 16/M04 A3029 RMK A01 T01601038  RH  025%=      5-min Rain = 0
KEA1 151825Z 19022KT 16/M04 A3028 RMK A01 T01631038  RH  025%=      5-min Rain = 0
KEA1 151826Z 20022KT 16/M04 A3028 RMK A01 T01611041  RH  025%=      5-min Rain = 0
KEA1 151827Z 20020KT 16/M04 A3028 RMK A01 T01591040  RH  025%=      5-min Rain = 0
KEA1 151828Z 19018G23KT 16/M04 A3029 RMK A01 T01591039  RH  025%=      5-min Rain = 0
KEA1 151829Z 19016KT 16/M04 A3029 RMK A01 T01611036  RH  026%=      5-min Rain = 0
KEA1 151830Z 20018KT 16/M04 A3029 RMK A01 T01631035  RH  026%=      5-min Rain = 0
KEA1 151831Z 20018KT 16/M04 A3028 RMK A01 T01601037  RH  026%=      5-min Rain = 0
KEA1 151832Z 20016KT 16/M04 A3028 RMK A01 T01591036  RH  026%=      5-min Rain = 0
KEA1 151833Z 20017KT 16/M04 A3028 RMK A01 T01601036  RH  026%=      5-min Rain = 0
KEA1 151834Z 19018G23KT 16/M04 A3028 RMK A01 T01621035  RH  026%=      5-min Rain = 0
KEA1 151835Z 20016G21KT 16/M04 A3028 RMK A01 T01631035  RH  026%=      5-min Rain = 0
KEA1 151836Z 21017G22KT 16/M04 A3028 RMK A01 T01641035  RH  025%=      5-min Rain = 0
KEA1 151837Z 20016KT 16/M04 A3028 RMK A01 T01641037  RH  025%=      5-min Rain = 0
KEA1 151838Z 18019KT 16/M04 A3028 RMK A01 T01631036  RH  025%=      5-min Rain = 0
KEA1 151839Z 20017KT 17/M04 A3028 RMK A01 T01651036  RH  025%=      5-min Rain = 0
KEA1 151840Z 20019KT 17/M04 A3028 RMK A01 T01681035  RH  025%=      5-min Rain = 0
KEA1 151841Z 19020KT 17/M04 A3028 RMK A01 T01671037  RH  024%=      5-min Rain = 0
KEA1 151842Z 19020KT 16/M04 A3028 RMK A01 T01641039  RH  025%=      5-min Rain = 0
KEA1 151843Z 20019KT 16/M04 A3028 RMK A01 T01611041  RH  025%=      5-min Rain = 0
KEA1 151844Z 20018KT 16/M04 A3027 RMK A01 T01611038  RH  025%=      5-min Rain = 0
KEA1 151845Z 19021G26KT 16/M04 A3027 RMK A01 T01611038  RH  025%=      5-min Rain = 0
KEA1 151846Z 19022KT 16/M04 A3027 RMK A01 T01611040  RH  025%=      5-min Rain = 0
KEA1 151847Z 20020KT 16/M04 A3027 RMK A01 T01621040  RH  025%=      5-min Rain = 0
KEA1 151848Z 20019KT 16/M04 A3027 RMK A01 T01611039  RH  025%=      5-min Rain = 0
KEA1 151849Z 19016KT 16/M04 A3027 RMK A01 T01611037  RH  026%=      5-min Rain = 0
KEA1 151850Z 19017KT 17/M04 A3027 RMK A01 T01651035  RH  025%=      5-min Rain = 0
KEA1 151851Z 19016G23KT 17/M03 A3027 RMK A01 T01681034  RH  025%=      5-min Rain = 0
KEA1 151852Z 19020KT 17/M04 A3027 RMK A01 T01701038  RH  024%=      5-min Rain = 0
KEA1 151853Z 19022KT 17/M04 A3027 RMK A01 T01671041  RH  024%=      5-min Rain = 0
KEA1 151854Z 19018KT 16/M04 A3027 RMK A01 T01641042  RH  024%=      5-min Rain = 0
KEA1 151855Z 19017G24KT 16/M04 A3027 RMK A01 T01631040  RH  025%=      5-min Rain = 0
KEA1 151856Z 19020KT 16/M04 A3027 RMK A01 T01631040  RH  025%=      5-min Rain = 0
KEA1 151857Z 19022KT 17/M04 A3026 RMK A01 T01651039  RH  024%=      5-min Rain = 0
KEA1 151858Z 18017KT 16/M04 A3027 RMK A01 T01641040  RH  025%=      5-min Rain = 0
KEA1 151859Z 19018KT 17/M04 A3026 RMK A01 T01651038  RH  025%=      5-min Rain = 0
KEA1 151900Z 19020KT 17/M04 A3026 RMK A01 T01661041  RH  024%=      5-min Rain = 0
KEA1 151901Z 19020KT 17/M04 A3026 RMK A01 T01651041  RH  024%=      5-min Rain = 0
KEA1 151902Z 19019KT 17/M04 A3026 RMK A01 T01651042  RH  024%=      5-min Rain = 0
KEA1 151903Z 19018KT 17/M04 A3026 RMK A01 T01661041  RH  024%=      5-min Rain = 0
KEA1 151904Z 18019G24KT 17/M04 A3026 RMK A01 T01681039  RH  024%=      5-min Rain = 0
KEA1 151905Z 19019KT 17/M04 A3026 RMK A01 T01701041  RH  023%=      5-min Rain = 0
KEA1 151906Z 20017G24KT 17/M04 A3026 RMK A01 T01701041  RH  023%=      5-min Rain = 0
KEA1 151907Z 20019G25KT 17/M04 A3026 RMK A01 T01711043  RH  023%=      5-min Rain = 0
KEA1 151908Z 19017KT 17/M04 A3026 RMK A01 T01691043  RH  023%=      5-min Rain = 0
KEA1 151909Z 19020KT 17/M04 A3026 RMK A01 T01711044  RH  023%=      5-min Rain = 0
KEA1 151910Z 20020KT 17/M05 A3026 RMK A01 T01701046  RH  023%=      5-min Rain = 0
KEA1 151911Z 19017KT 17/M04 A3026 RMK A01 T01681044  RH  023%=      5-min Rain = 0
KEA1 151912Z 19017KT 17/M05 A3026 RMK A01 T01691045  RH  023%=      5-min Rain = 0
KEA1 151913Z 20018KT 17/M04 A3026 RMK A01 T01701043  RH  023%=      5-min Rain = 0
KEA1 151914Z 20020KT 17/M04 A3025 RMK A01 T01731043  RH  023%=      5-min Rain = 0
KEA1 151915Z 21018G24KT 17/M05 A3025 RMK A01 T01711046  RH  022%=      5-min Rain = 0
KEA1 151916Z 20014G20KT 17/M05 A3026 RMK A01 T01691045  RH  023%=      5-min Rain = 0
KEA1 151917Z 19017KT 17/M04 A3025 RMK A01 T01711043  RH  023%=      5-min Rain = 0
KEA1 151918Z 18018KT 17/M04 A3025 RMK A01 T01741043  RH  022%=      5-min Rain = 0
KEA1 151919Z 20017KT 17/M05 A3025 RMK A01 T01731046  RH  022%=      5-min Rain = 0
KEA1 151920Z 21018G25KT 17/M05 A3025 RMK A01 T01731047  RH  022%=      5-min Rain = 0
KEA1 151921Z 21017KT 17/M05 A3025 RMK A01 T01711048  RH  022%=      5-min Rain = 0
KEA1 151922Z 21017G22KT 17/M05 A3025 RMK A01 T01711047  RH  022%=      5-min Rain = 0
KEA1 151923Z 20017KT 17/M05 A3025 RMK A01 T01711046  RH  022%=      5-min Rain = 0
KEA1 151924Z 21020KT 17/M05 A3025 RMK A01 T01721046  RH  022%=      5-min Rain = 0
KEA1 151925Z 21019G25KT 17/M05 A3025 RMK A01 T01711047  RH  022%=      5-min Rain = 0
KEA1 151926Z 20018KT 17/M05 A3025 RMK A01 T01701046  RH  022%=      5-min Rain = 0
KEA1 151927Z 22017KT 17/M05 A3025 RMK A01 T01701046  RH  022%=      5-min Rain = 0
KEA1 151928Z 20019KT 17/M05 A3025 RMK A01 T01711047  RH  022%=      5-min Rain = 0
KEA1 151929Z 20018KT 17/M05 A3025 RMK A01 T01711045  RH  022%=      5-min Rain = 0
KEA1 151930Z 20017G22KT 17/M05 A3024 RMK A01 T01711046  RH  022%=      5-min Rain = 0
KEA1 151931Z 19021KT 17/M04 A3024 RMK A01 T01731043  RH  023%=      5-min Rain = 0
KEA1 151932Z 20019KT 17/M04 A3024 RMK A01 T01721044  RH  023%=      5-min Rain = 0
KEA1 151933Z 18016KT 17/M04 A3024 RMK A01 T01721042  RH  023%=      5-min Rain = 0
KEA1 151934Z 19019KT 17/M04 A3024 RMK A01 T01741043  RH  022%=      5-min Rain = 0
KEA1 151935Z 19018KT 17/M05 A3024 RMK A01 T01731049  RH  022%=      5-min Rain = 0
KEA1 151936Z 19018KT 17/M05 A3024 RMK A01 T01711050  RH  022%=      5-min Rain = 0
KEA1 151937Z 20015KT 17/M05 A3024 RMK A01 T01691050  RH  022%=      5-min Rain = 0
KEA1 151938Z 19019KT 17/M05 A3024 RMK A01 T01691046  RH  023%=      5-min Rain = 0
KEA1 151939Z 20019KT 17/M04 A3024 RMK A01 T01711043  RH  023%=      5-min Rain = 0
KEA1 151940Z 19021KT 17/M04 A3024 RMK A01 T01711042  RH  023%=      5-min Rain = 0
KEA1 151941Z 18020KT 17/M04 A3024 RMK A01 T01721042  RH  023%=      5-min Rain = 0
KEA1 151942Z 20019KT 17/M04 A3024 RMK A01 T01721042  RH  023%=      5-min Rain = 0
KEA1 151943Z 20018KT 17/M04 A3023 RMK A01 T01721044  RH  022%=      5-min Rain = 0
KEA1 151944Z 20014KT 17/M04 A3024 RMK A01 T01711044  RH  023%=      5-min Rain = 0
KEA1 151945Z 19016G23KT 17/M04 A3024 RMK A01 T01731040  RH  023%=      5-min Rain = 0
KEA1 151946Z 19018KT 18/M04 A3023 RMK A01 T01771039  RH  023%=      5-min Rain = 0
KEA1 151947Z 18021KT 17/M04 A3023 RMK A01 T01741043  RH  022%=      5-min Rain = 0
KEA1 151948Z 18020G25KT 17/M04 A3023 RMK A01 T01701042  RH  023%=      5-min Rain = 0
KEA1 151949Z 19019KT 17/M04 A3023 RMK A01 T01721041  RH  023%=      5-min Rain = 0
KEA1 151950Z 19015KT 17/M04 A3023 RMK A01 T01691043  RH  023%=      5-min Rain = 0
KEA1 151951Z 19015KT 17/M04 A3023 RMK A01 T01711040  RH  023%=      5-min Rain = 0
KEA1 151952Z 19019KT 18/M04 A3023 RMK A01 T01751041  RH  023%=      5-min Rain = 0
KEA1 151953Z 20019G25KT 17/M04 A3023 RMK A01 T01731042  RH  023%=      5-min Rain = 0
KEA1 151954Z 19019KT 17/M04 A3023 RMK A01 T01741040  RH  023%=      5-min Rain = 0
KEA1 151955Z 19019KT 17/M04 A3023 RMK A01 T01711042  RH  023%=      5-min Rain = 0
KEA1 151956Z 19020KT 17/M04 A3023 RMK A01 T01691042  RH  023%=      5-min Rain = 0
KEA1 151957Z 19019G25KT 17/M04 A3023 RMK A01 T01701041  RH  023%=      5-min Rain = 0
KEA1 151958Z 19022KT 17/M04 A3022 RMK A01 T01711042  RH  023%=      5-min Rain = 0
KEA1 151959Z 19017KT 17/M04 A3023 RMK A01 T01681044  RH  023%=      5-min Rain = 0
KEA1 152000Z 19017KT 17/M04 A3023 RMK A01 T01691042  RH  023%=      5-min Rain = 0
KEA1 152001Z 19021KT 17/M04 A3022 RMK A01 T01701041  RH  023%=      5-min Rain = 0
KEA1 152002Z 18016KT 17/M04 A3022 RMK A01 T01701043  RH  023%=      5-min Rain = 0
KEA1 152003Z 18020G25KT 17/M04 A3022 RMK A01 T01721042  RH  023%=      5-min Rain = 0
KEA1 152004Z 18021KT 17/M05 A3022 RMK A01 T01721045  RH  022%=      5-min Rain = 0
KEA1 152005Z 18020KT 17/M04 A3022 RMK A01 T01721043  RH  023%=      5-min Rain = 0
KEA1 152006Z 19019KT 17/M04 A3022 RMK A01 T01721042  RH  023%=      5-min Rain = 0
KEA1 152007Z 19017KT 17/M04 A3022 RMK A01 T01721041  RH  023%=      5-min Rain = 0
KEA1 152008Z 19020G26KT 17/M04 A3022 RMK A01 T01721041  RH  023%=      5-min Rain = 0
KEA1 152009Z 19022KT 17/M04 A3022 RMK A01 T01731044  RH  022%=      5-min Rain = 0
KEA1 152010Z 20021KT 17/M04 A3022 RMK A01 T01721044  RH  022%=      5-min Rain = 0
KEA1 152011Z 20017KT 17/M04 A3022 RMK A01 T01701044  RH  023%=      5-min Rain = 0
KEA1 152012Z 19018KT 17/M04 A3022 RMK A01 T01721042  RH  023%=      5-min Rain = 0
KEA1 152013Z 19021G27KT 17/M04 A3022 RMK A01 T01731043  RH  023%=      5-min Rain = 0
KEA1 152014Z 19018G24KT 17/M04 A3022 RMK A01 T01721041  RH  023%=      5-min Rain = 0
KEA1 152015Z 19019KT 17/M04 A3022 RMK A01 T01731040  RH  023%=      5-min Rain = 0
KEA1 152016Z 19020KT 17/M04 A3022 RMK A01 T01721042  RH  023%=      5-min Rain = 0
KEA1 152017Z 18015G20KT 17/M04 A3022 RMK A01 T01691043  RH  023%=      5-min Rain = 0
KEA1 152018Z 19017KT 17/M04 A3022 RMK A01 T01691040  RH  024%=      5-min Rain = 0
KEA1 152019Z 19014KT 17/M04 A3022 RMK A01 T01741040  RH  023%=      5-min Rain = 0
KEA1 152020Z 21018G23KT 18/M04 A3022 RMK A01 T01761041  RH  022%=      5-min Rain = 0
KEA1 152021Z 20018KT 18/M04 A3022 RMK A01 T01751041  RH  023%=      5-min Rain = 0
KEA1 152022Z 20016KT 17/M04 A3022 RMK A01 T01731041  RH  023%=      5-min Rain = 0
KEA1 152023Z 20015KT 17/M04 A3022 RMK A01 T01721041  RH  023%=      5-min Rain = 0
KEA1 152024Z 18019KT 17/M04 A3022 RMK A01 T01731041  RH  023%=      5-min Rain = 0
KEA1 152025Z 19021KT 17/M04 A3021 RMK A01 T01721043  RH  023%=      5-min Rain = 0
KEA1 152026Z 18020KT 17/M04 A3021 RMK A01 T01731042  RH  023%=      5-min Rain = 0
KEA1 152027Z 18020G25KT 17/M04 A3021 RMK A01 T01731042  RH  023%=      5-min Rain = 0
KEA1 152028Z 19019KT 18/M04 A3021 RMK A01 T01761040  RH  023%=      5-min Rain = 0
KEA1 152029Z 19021KT 18/M04 A3021 RMK A01 T01771042  RH  022%=      5-min Rain = 0
KEA1 152030Z 19016KT 17/M05 A3021 RMK A01 T01741045  RH  022%=      5-min Rain = 0
KEA1 152031Z 18020KT 17/M04 A3021 RMK A01 T01741044  RH  022%=      5-min Rain = 0
KEA1 152032Z 19019G25KT 17/M05 A3021 RMK A01 T01741045  RH  022%=      5-min Rain = 0
KEA1 152033Z 19017KT 18/M04 A3021 RMK A01 T01751041  RH  022%=      5-min Rain = 0
KEA1 152034Z 18019KT 18/M04 A3021 RMK A01 T01761041  RH  022%=      5-min Rain = 0
KEA1 152035Z 18018G24KT 18/M04 A3021 RMK A01 T01751041  RH  023%=      5-min Rain = 0
KEA1 152036Z 19014KT 17/M04 A3021 RMK A01 T01731041  RH  023%=      5-min Rain = 0
KEA1 152037Z 19017KT 18/M04 A3021 RMK A01 T01771038  RH  023%=      5-min Rain = 0
KEA1 152038Z 21018KT 18/M04 A3021 RMK A01 T01801040  RH  022%=      5-min Rain = 0
KEA1 152039Z 21018KT 18/M04 A3021 RMK A01 T01781042  RH  022%=      5-min Rain = 0
KEA1 152040Z 20016KT 18/M04 A3021 RMK A01 T01761043  RH  022%=      5-min Rain = 0
KEA1 152041Z 18017KT 18/M04 A3021 RMK A01 T01771041  RH  022%=      5-min Rain = 0
KEA1 152042Z 18015KT 18/M04 A3021 RMK A01 T01771043  RH  022%=      5-min Rain = 0
KEA1 152043Z 20014KT 18/M04 A3021 RMK A01 T01751043  RH  022%=      5-min Rain = 0
KEA1 152044Z 19016KT 18/M04 A3021 RMK A01 T01761042  RH  022%=      5-min Rain = 0
KEA1 152045Z 18020KT 18/M04 A3021 RMK A01 T01771042  RH  022%=      5-min Rain = 0
KEA1 152046Z 18019KT 18/M04 A3021 RMK A01 T01761044  RH  022%=      5-min Rain = 0
KEA1 152047Z 19014KT 17/M04 A3021 RMK A01 T01741043  RH  022%=      5-min Rain = 0
KEA1 152048Z 19021G26KT 18/M04 A3021 RMK A01 T01771042  RH  022%=      5-min Rain = 0
KEA1 152049Z 19021KT 18/M05 A302 RMK A01 T01761045  RH  022%=      5-min Rain = 0
KEA1 152050Z 19019KT 18/M05 A302 RMK A01 T01751045  RH  022%=      5-min Rain = 0
KEA1 152051Z 19016KT 17/M04 A3021 RMK A01 T01741044  RH  022%=      5-min Rain = 0
KEA1 152052Z 20017KT 18/M04 A3021 RMK A01 T01761042  RH  022%=      5-min Rain = 0
KEA1 152053Z 19018KT 18/M04 A302 RMK A01 T01761044  RH  022%=      5-min Rain = 0
KEA1 152054Z 20018KT 18/M04 A302 RMK A01 T01761042  RH  022%=      5-min Rain = 0
KEA1 152055Z 18017KT 18/M04 A302 RMK A01 T01751043  RH  022%=      5-min Rain = 0
KEA1 152056Z 19020G25KT 18/M04 A302 RMK A01 T01751043  RH  022%=      5-min Rain = 0
KEA1 152057Z 19020KT 18/M04 A302 RMK A01 T01761042  RH  022%=      5-min Rain = 0
KEA1 152058Z 19019KT 18/M04 A302 RMK A01 T01761044  RH  022%=      5-min Rain = 0
KEA1 152059Z 19014G21KT 17/M05 A3021 RMK A01 T01741046  RH  022%=      5-min Rain = 0
KEA1 152100Z 19015KT 18/M04 A3021 RMK A01 T01751043  RH  022%=      5-min Rain = 0
KEA1 152101Z 19015KT 18/M05 A302 RMK A01 T01761045  RH  022%=      5-min Rain = 0
KEA1 152102Z 20016G22KT 18/M05 A3021 RMK A01 T01761045  RH  022%=      5-min Rain = 0
KEA1 152103Z 20021KT 18/M05 A302 RMK A01 T01761045  RH  022%=      5-min Rain = 0
KEA1 152104Z 19018KT 18/M05 A302 RMK A01 T01751046  RH  022%=      5-min Rain = 0
KEA1 152105Z 21017KT 17/M05 A3021 RMK A01 T01741046  RH  022%=      5-min Rain = 0
KEA1 152106Z 20013KT 18/M05 A3021 RMK A01 T01751045  RH  022%=      5-min Rain = 0
KEA1 152107Z 20013KT 18/M04 A3021 RMK A01 T01771042  RH  022%=      5-min Rain = 0
KEA1 152108Z 20018KT 18/M04 A302 RMK A01 T01811041  RH  022%=      5-min Rain = 0
KEA1 152109Z 20020KT 18/M04 A302 RMK A01 T01791043  RH  022%=      5-min Rain = 0
KEA1 152110Z 20018KT 18/M04 A302 RMK A01 T01761043  RH  022%=      5-min Rain = 0
KEA1 152111Z 19018KT 18/M04 A302 RMK A01 T01751044  RH  022%=      5-min Rain = 0
KEA1 152112Z 19016KT 17/M04 A302 RMK A01 T01741043  RH  022%=      5-min Rain = 0
KEA1 152113Z 20018KT 17/M04 A302 RMK A01 T01741043  RH  022%=      5-min Rain = 0
KEA1 152114Z 19017KT 17/M04 A302 RMK A01 T01741044  RH  022%=      5-min Rain = 0
KEA1 152115Z 19018KT 17/M04 A302 RMK A01 T01731044  RH  022%=      5-min Rain = 0
KEA1 152116Z 19019KT 17/M04 A302 RMK A01 T01741043  RH  022%=      5-min Rain = 0
KEA1 152117Z 18020KT 18/M04 A302 RMK A01 T01751042  RH  022%=      5-min Rain = 0
KEA1 152118Z 19021G26KT 18/M04 A302 RMK A01 T01751043  RH  022%=      5-min Rain = 0
KEA1 152119Z 20017KT 18/M04 A302 RMK A01 T01751043  RH  022%=      5-min Rain = 0
KEA1 152120Z 20016G21KT 17/M04 A302 RMK A01 T01731042  RH  023%=      5-min Rain = 0
KEA1 152121Z 19017G22KT 18/M04 A302 RMK A01 T01751042  RH  023%=      5-min Rain = 0
KEA1 152122Z 19015KT 18/M04 A302 RMK A01 T01781040  RH  022%=      5-min Rain = 0
KEA1 152123Z 20018KT 18/M04 A302 RMK A01 T01801042  RH  022%=      5-min Rain = 0
KEA1 152124Z 20018KT 18/M04 A302 RMK A01 T01781044  RH  022%=      5-min Rain = 0
KEA1 152125Z 20017KT 18/M04 A302 RMK A01 T01761043  RH  022%=      5-min Rain = 0
KEA1 152126Z 20016G22KT 18/M04 A302 RMK A01 T01751043  RH  022%=      5-min Rain = 0
KEA1 152127Z 20020KT 18/M04 A302 RMK A01 T01751042  RH  023%=      5-min Rain = 0
KEA1 152128Z 20016KT 17/M04 A302 RMK A01 T01741042  RH  023%=      5-min Rain = 0
KEA1 152129Z 19014KT 18/M04 A302 RMK A01 T01751040  RH  023%=      5-min Rain = 0
KEA1 152130Z 18015G20KT 18/M04 A302 RMK A01 T01781038  RH  023%=      5-min Rain = 0
KEA1 152131Z 19015KT 18/M04 A302 RMK A01 T01791039  RH  022%=      5-min Rain = 0
KEA1 152132Z 18014KT 18/M04 A302 RMK A01 T01811039  RH  022%=      5-min Rain = 0
KEA1 152133Z 18017KT 18/M04 A302 RMK A01 T01801042  RH  022%=      5-min Rain = 0
KEA1 152134Z 20016G21KT 18/M04 A302 RMK A01 T01791042  RH  022%=      5-min Rain = 0
KEA1 152135Z 20014KT 18/M04 A302 RMK A01 T01791044  RH  021%=      5-min Rain = 0
KEA1 152136Z 19017KT 18/M04 A302 RMK A01 T01781044  RH  022%=      5-min Rain = 0
KEA1 152137Z 20015KT 18/M04 A302 RMK A01 T01771043  RH  022%=      5-min Rain = 0
KEA1 152138Z 19013G19KT 18/M04 A302 RMK A01 T01761041  RH  022%=      5-min Rain = 0
KEA1 152139Z 18017KT 18/M04 A302 RMK A01 T01771040  RH  022%=      5-min Rain = 0
KEA1 152140Z 19017KT 18/M04 A302 RMK A01 T01761042  RH  022%=      5-min Rain = 0
KEA1 152141Z 19018KT 18/M04 A3019 RMK A01 T01751042  RH  022%=      5-min Rain = 0
KEA1 152142Z 19019KT 18/M04 A302 RMK A01 T01761043  RH  022%=      5-min Rain = 0
KEA1 152143Z 20018KT 18/M05 A302 RMK A01 T01751045  RH  022%=      5-min Rain = 0
KEA1 152144Z 19019KT 17/M05 A302 RMK A01 T01741045  RH  022%=      5-min Rain = 0
KEA1 152145Z 18019KT 17/M05 A302 RMK A01 T01731047  RH  022%=      5-min Rain = 0
KEA1 152146Z 19016KT 17/M05 A302 RMK A01 T01731047  RH  022%=      5-min Rain = 0
KEA1 152147Z 20018KT 17/M04 A302 RMK A01 T01741044  RH  022%=      5-min Rain = 0
KEA1 152148Z 20017KT 18/M05 A302 RMK A01 T01751045  RH  022%=      5-min Rain = 0
KEA1 152149Z 20015KT 18/M04 A302 RMK A01 T01751043  RH  022%=      5-min Rain = 0
KEA1 152150Z 19015KT 18/M04 A302 RMK A01 T01761041  RH  022%=      5-min Rain = 0
KEA1 152151Z 18015KT 18/M04 A302 RMK A01 T01761042  RH  022%=      5-min Rain = 0
KEA1 152152Z 19015KT 18/M04 A302 RMK A01 T01761041  RH  023%=      5-min Rain = 0
KEA1 152153Z 18020KT 18/M04 A3019 RMK A01 T01761040  RH  023%=      5-min Rain = 0
KEA1 152154Z 19017KT 17/M04 A3019 RMK A01 T01741041  RH  023%=      5-min Rain = 0
KEA1 152155Z 19018KT 17/M04 A3019 RMK A01 T01741041  RH  023%=      5-min Rain = 0
KEA1 152156Z 18016KT 17/M04 A3019 RMK A01 T01731042  RH  023%=      5-min Rain = 0
KEA1 152157Z 19016KT 17/M04 A3019 RMK A01 T01721041  RH  023%=      5-min Rain = 0
KEA1 152158Z 18016KT 17/M04 A3019 RMK A01 T01721041  RH  023%=      5-min Rain = 0
KEA1 152159Z 18016KT 17/M04 A3019 RMK A01 T01731041  RH  023%=      5-min Rain = 0
KEA1 152200Z 18019KT 17/M04 A3019 RMK A01 T01741041  RH  023%=      5-min Rain = 0
KEA1 152201Z 18016G21KT 17/M04 A3019 RMK A01 T01741041  RH  023%=      5-min Rain = 0
KEA1 152202Z 19019KT 17/M04 A3019 RMK A01 T01741041  RH  023%=      5-min Rain = 0
KEA1 152203Z 18018KT 17/M04 A3019 RMK A01 T01731041  RH  023%=      5-min Rain = 0
KEA1 152204Z 18017G22KT 17/M04 A3019 RMK A01 T01721041  RH  023%=      5-min Rain = 0
KEA1 152205Z 18020KT 17/M04 A3019 RMK A01 T01731041  RH  023%=      5-min Rain = 0
KEA1 152206Z 18022KT 17/M04 A3019 RMK A01 T01721043  RH  023%=      5-min Rain = 0
KEA1 152207Z 19016KT 17/M04 A3019 RMK A01 T01711042  RH  023%=      5-min Rain = 0
KEA1 152208Z 19015KT 17/M04 A3019 RMK A01 T01721041  RH  023%=      5-min Rain = 0
KEA1 152209Z 18015KT 17/M04 A3019 RMK A01 T01731040  RH  023%=      5-min Rain = 0
KEA1 152210Z 18014G19KT 17/M04 A3019 RMK A01 T01731040  RH  023%=      5-min Rain = 0
KEA1 152211Z 19015G20KT 17/M04 A3019 RMK A01 T01741040  RH  023%=      5-min Rain = 0
KEA1 152212Z 19018KT 17/M04 A3019 RMK A01 T01731041  RH  023%=      5-min Rain = 0
KEA1 152213Z 19019KT 17/M04 A3019 RMK A01 T01721042  RH  023%=      5-min Rain = 0
KEA1 152214Z 19016KT 17/M04 A3019 RMK A01 T01721042  RH  023%=      5-min Rain = 0
KEA1 152215Z 19012KT 17/M04 A3019 RMK A01 T01711042  RH  023%=      5-min Rain = 0
KEA1 152216Z 18015KT 17/M04 A3019 RMK A01 T01731040  RH  023%=      5-min Rain = 0
KEA1 152217Z 18015KT 17/M04 A3019 RMK A01 T01731041  RH  023%=      5-min Rain = 0
KEA1 152218Z 18018KT 17/M04 A3019 RMK A01 T01731041  RH  023%=      5-min Rain = 0
KEA1 152219Z 18017KT 17/M04 A3019 RMK A01 T01711043  RH  023%=      5-min Rain = 0
KEA1 152220Z 19017KT 17/M04 A3019 RMK A01 T01701042  RH  023%=      5-min Rain = 0
KEA1 152221Z 19020KT 17/M04 A3019 RMK A01 T01711041  RH  023%=      5-min Rain = 0
KEA1 152222Z 19019KT 17/M04 A3019 RMK A01 T01691043  RH  023%=      5-min Rain = 0
KEA1 152223Z 18014KT 17/M04 A3019 RMK A01 T01681042  RH  023%=      5-min Rain = 0
KEA1 152224Z 18015KT 17/M04 A3019 RMK A01 T01691041  RH  024%=      5-min Rain = 0
KEA1 152225Z 18017G23KT 17/M04 A3019 RMK A01 T01701041  RH  023%=      5-min Rain = 0
KEA1 152226Z 18020KT 17/M04 A3019 RMK A01 T01681042  RH  023%=      5-min Rain = 0
KEA1 152227Z 18018KT 17/M04 A3019 RMK A01 T01681042  RH  023%=      5-min Rain = 0
KEA1 152228Z 19018KT 17/M04 A3019 RMK A01 T01671042  RH  024%=      5-min Rain = 0
KEA1 152229Z 19012KT 17/M04 A3019 RMK A01 T01671042  RH  024%=      5-min Rain = 0
KEA1 152230Z 20011KT 17/M04 A3019 RMK A01 T01681041  RH  024%=      5-min Rain = 0
KEA1 152231Z 18013G18KT 17/M04 A3019 RMK A01 T01701040  RH  023%=      5-min Rain = 0
KEA1 152232Z 19017KT 17/M04 A3019 RMK A01 T01701042  RH  023%=      5-min Rain = 0
KEA1 152233Z 19017KT 17/M04 A3019 RMK A01 T01681043  RH  023%=      5-min Rain = 0
KEA1 152234Z 18016KT 17/M04 A3019 RMK A01 T01661042  RH  024%=      5-min Rain = 0
KEA1 152235Z 18018KT 17/M04 A3019 RMK A01 T01661042  RH  024%=      5-min Rain = 0
KEA1 152236Z 18016KT 17/M04 A3019 RMK A01 T01651042  RH  024%=      5-min Rain = 0
KEA1 152237Z 18017KT 17/M04 A3019 RMK A01 T01661042  RH  024%=      5-min Rain = 0
KEA1 152238Z 19019KT 17/M04 A3019 RMK A01 T01651042  RH  024%=      5-min Rain = 0
KEA1 152239Z 18018KT 17/M04 A3019 RMK A01 T01651042  RH  024%=      5-min Rain = 0
KEA1 152240Z 18017KT 16/M04 A3019 RMK A01 T01641043  RH  024%=      5-min Rain = 0
KEA1 152241Z 18017KT 16/M04 A3019 RMK A01 T01631043  RH  024%=      5-min Rain = 0
KEA1 152242Z 19013KT 16/M04 A3019 RMK A01 T01631043  RH  024%=      5-min Rain = 0
KEA1 152243Z 19013KT 16/M04 A3019 RMK A01 T01641042  RH  024%=      5-min Rain = 0
KEA1 152244Z 19013KT 16/M04 A3019 RMK A01 T01641043  RH  024%=      5-min Rain = 0
KEA1 152245Z 18015KT 16/M04 A3019 RMK A01 T01641042  RH  024%=      5-min Rain = 0
KEA1 152246Z 18017KT 16/M04 A3019 RMK A01 T01631044  RH  024%=      5-min Rain = 0
KEA1 152247Z 18017KT 16/M05 A3019 RMK A01 T01621045  RH  024%=      5-min Rain = 0
KEA1 152248Z 18017KT 16/M05 A3019 RMK A01 T01621045  RH  024%=      5-min Rain = 0
KEA1 152249Z 18019KT 16/M05 A3019 RMK A01 T01621045  RH  024%=      5-min Rain = 0
KEA1 152250Z 18016KT 16/M05 A3019 RMK A01 T01621045  RH  024%=      5-min Rain = 0
KEA1 152251Z 19013KT 16/M05 A3019 RMK A01 T01611045  RH  024%=      5-min Rain = 0
KEA1 152252Z 19012KT 16/M04 A3019 RMK A01 T01611044  RH  024%=      5-min Rain = 0
KEA1 152253Z 19014KT 16/M04 A3019 RMK A01 T01611044  RH  024%=      5-min Rain = 0
KEA1 152254Z 19015KT 16/M05 A3019 RMK A01 T01611045  RH  024%=      5-min Rain = 0
KEA1 152255Z 19018KT 16/M05 A3019 RMK A01 T01601046  RH  024%=      5-min Rain = 0
KEA1 152256Z 19017KT 16/M05 A3019 RMK A01 T01591047  RH  024%=      5-min Rain = 0
KEA1 152257Z 19016KT 16/M05 A3019 RMK A01 T01591047  RH  024%=      5-min Rain = 0
KEA1 152258Z 19018KT 16/M05 A3019 RMK A01 T01591047  RH  024%=      5-min Rain = 0
KEA1 152259Z 18019KT 16/M05 A3019 RMK A01 T01581047  RH  024%=      5-min Rain = 0
KEA1 152300Z 18017KT 16/M05 A3019 RMK A01 T01581047  RH  024%=      5-min Rain = 0
KEA1 152301Z 18014KT 16/M05 A3019 RMK A01 T01581047  RH  024%=      5-min Rain = 0
KEA1 152302Z 19014KT 16/M05 A3019 RMK A01 T01571047  RH  024%=      5-min Rain = 0
KEA1 152303Z 19016KT 16/M05 A3019 RMK A01 T01571047  RH  024%=      5-min Rain = 0
KEA1 152304Z 18015KT 16/M05 A3019 RMK A01 T01561048  RH  024%=      5-min Rain = 0
KEA1 152305Z 18014KT 16/M05 A3019 RMK A01 T01561047  RH  024%=      5-min Rain = 0
KEA1 152306Z 18016KT 16/M05 A3019 RMK A01 T01561047  RH  024%=      5-min Rain = 0
KEA1 152307Z 19016KT 16/M05 A3019 RMK A01 T01551048  RH  024%=      5-min Rain = 0
KEA1 152308Z 18014KT 16/M05 A3019 RMK A01 T01551047  RH  024%=      5-min Rain = 0
KEA1 152309Z 18017KT 16/M05 A3018 RMK A01 T01551047  RH  025%=      5-min Rain = 0
KEA1 152310Z 19015KT 15/M05 A3018 RMK A01 T01541048  RH  025%=      5-min Rain = 0
KEA1 152311Z 19014KT 15/M05 A3019 RMK A01 T01531047  RH  025%=      5-min Rain = 0
KEA1 152312Z 19014KT 15/M05 A3018 RMK A01 T01531048  RH  025%=      5-min Rain = 0
KEA1 152313Z 18012KT 15/M05 A3019 RMK A01 T01521047  RH  025%=      5-min Rain = 0
KEA1 152314Z 19014KT 15/M05 A3018 RMK A01 T01511047  RH  025%=      5-min Rain = 0
KEA1 152315Z 19012KT 15/M05 A3019 RMK A01 T01501047  RH  025%=      5-min Rain = 0
KEA1 152316Z 18011KT 15/M05 A3019 RMK A01 T01501047  RH  025%=      5-min Rain = 0
KEA1 152317Z 18013KT 15/M05 A3019 RMK A01 T01491047  RH  025%=      5-min Rain = 0
KEA1 152318Z 19014G19KT 15/M05 A3018 RMK A01 T01491047  RH  026%=      5-min Rain = 0
KEA1 152319Z 19015KT 15/M05 A3018 RMK A01 T01481048  RH  026%=      5-min Rain = 0
KEA1 152320Z 19016KT 15/M05 A3018 RMK A01 T01481048  RH  026%=      5-min Rain = 0
KEA1 152321Z 19014KT 15/M05 A3018 RMK A01 T01481048  RH  025%=      5-min Rain = 0
KEA1 152322Z 19012KT 15/M05 A3019 RMK A01 T01471048  RH  025%=      5-min Rain = 0
KEA1 152323Z 19012KT 15/M05 A3019 RMK A01 T01461049  RH  026%=      5-min Rain = 0
KEA1 152324Z 18013KT 15/M05 A3019 RMK A01 T01451049  RH  026%=      5-min Rain = 0
KEA1 152325Z 19012KT 14/M05 A3019 RMK A01 T01441049  RH  026%=      5-min Rain = 0
KEA1 152326Z 18012KT 14/M05 A3019 RMK A01 T01431049  RH  026%=      5-min Rain = 0
KEA1 152327Z 19013KT 14/M05 A3018 RMK A01 T01431050  RH  026%=      5-min Rain = 0
KEA1 152328Z 18012KT 14/M05 A3018 RMK A01 T01431050  RH  026%=      5-min Rain = 0
KEA1 152329Z 18012KT 14/M05 A3018 RMK A01 T01421050  RH  026%=      5-min Rain = 0
KEA1 152330Z 18011KT 14/M05 A3019 RMK A01 T01411050  RH  026%=      5-min Rain = 0
KEA1 152331Z 18012KT 14/M05 A3019 RMK A01 T01411049  RH  026%=      5-min Rain = 0
KEA1 152332Z 18011KT 14/M05 A3019 RMK A01 T01401050  RH  026%=      5-min Rain = 0
KEA1 152333Z 18011KT 14/M05 A3019 RMK A01 T01391050  RH  027%=      5-min Rain = 0
KEA1 152334Z 18011KT 14/M05 A3019 RMK A01 T01381050  RH  027%=      5-min Rain = 0
KEA1 152335Z 18010KT 14/M05 A3019 RMK A01 T01371050  RH  027%=      5-min Rain = 0
KEA1 152336Z 18010KT 14/M05 A3019 RMK A01 T01361050  RH  027%=      5-min Rain = 0
KEA1 152337Z 19011KT 14/M05 A3019 RMK A01 T01361050  RH  027%=      5-min Rain = 0
KEA1 152338Z 18010KT 14/M05 A3019 RMK A01 T01351050  RH  027%=      5-min Rain = 0
KEA1 152339Z 18010KT 13/M05 A3019 RMK A01 T01341050  RH  027%=      5-min Rain = 0
KEA1 152340Z 18010KT 13/M05 A3019 RMK A01 T01331050  RH  028%=      5-min Rain = 0
KEA1 152341Z 18010KT 13/M05 A3019 RMK A01 T01331050  RH  028%=      5-min Rain = 0
KEA1 152342Z 18009KT 13/M05 A3019 RMK A01 T01321050  RH  028%=      5-min Rain = 0
KEA1 152343Z 18009KT 13/M05 A3019 RMK A01 T01301050  RH  028%=      5-min Rain = 0
KEA1 152344Z 18009KT 13/M05 A3019 RMK A01 T01281050  RH  028%=      5-min Rain = 0
KEA1 152345Z 18009KT 13/M05 A3019 RMK A01 T01271050  RH  029%=      5-min Rain = 0
KEA1 152346Z 18009KT 13/M05 A3019 RMK A01 T01271049  RH  029%=      5-min Rain = 0
KEA1 152347Z 18009KT 13/M05 A3019 RMK A01 T01251050  RH  029%=      5-min Rain = 0
KEA1 152348Z 18010KT 12/M05 A3019 RMK A01 T01241049  RH  029%=      5-min Rain = 0
KEA1 152349Z 18009KT 12/M05 A3019 RMK A01 T01241049  RH  030%=      5-min Rain = 0
KEA1 152350Z 18009KT 12/M05 A3019 RMK A01 T01231049  RH  030%=      5-min Rain = 0
KEA1 152351Z 18009KT 12/M05 A3019 RMK A01 T01221049  RH  030%=      5-min Rain = 0
KEA1 152352Z 18009KT 12/M05 A3019 RMK A01 T01211049  RH  030%=      5-min Rain = 0
KEA1 152353Z 18009KT 12/M05 A3019 RMK A01 T01201048  RH  030%=      5-min Rain = 0
KEA1 152354Z 18009KT 12/M05 A3019 RMK A01 T01191049  RH  031%=      5-min Rain = 0
KEA1 152355Z 18009KT 12/M05 A3019 RMK A01 T01181049  RH  031%=      5-min Rain = 0
KEA1 152356Z 17009KT 12/M05 A3019 RMK A01 T01161049  RH  031%=      5-min Rain = 0
KEA1 152357Z 18009KT 12/M05 A3019 RMK A01 T01161048  RH  031%=      5-min Rain = 0
KEA1 152358Z 18009KT 12/M05 A3019 RMK A01 T01161048  RH  031%=      5-min Rain = 0
KEA1 152359Z 17008KT 12/M05 A3019 RMK A01 T01151048  RH  032%=      5-min Rain = 0
KEA1 160000Z 17009KT 11/M05 A3019 RMK A01 T01131049  RH  032%=      5-min Rain = 0
KEA1 160001Z 17009KT 11/M05 A3019 RMK A01 T01121049  RH  032%=      5-min Rain = 0
KEA1 160002Z 17009KT 11/M05 A3019 RMK A01 T01121049  RH  032%=      5-min Rain = 0
KEA1 160003Z 17009KT 11/M05 A3019 RMK A01 T01111049  RH  032%=      5-min Rain = 0
KEA1 160004Z 17009KT 11/M05 A3019 RMK A01 T01111048  RH  032%=      5-min Rain = 0
KEA1 160005Z 17009KT 11/M05 A3019 RMK A01 T01111048  RH  032%=      5-min Rain = 0
KEA1 160006Z 17010KT 11/M05 A3019 RMK A01 T01121047  RH  032%=      5-min Rain = 0
KEA1 160007Z 17010KT 11/M05 A3019 RMK A01 T01131047  RH  032%=      5-min Rain = 0
KEA1 160008Z 18010KT 11/M05 A3019 RMK A01 T01131047  RH  032%=      5-min Rain = 0
KEA1 160009Z 18010KT 11/M05 A3019 RMK A01 T01121047  RH  032%=      5-min Rain = 0
KEA1 160010Z 17009KT 11/M05 A3019 RMK A01 T01111047  RH  033%=      5-min Rain = 0
KEA1 160011Z 17009KT 11/M05 A3019 RMK A01 T01111047  RH  033%=      5-min Rain = 0
KEA1 160012Z 18009KT 11/M05 A3019 RMK A01 T01101047  RH  033%=      5-min Rain = 0
KEA1 160013Z 18009KT 11/M05 A3019 RMK A01 T01111047  RH  033%=      5-min Rain = 0
KEA1 160014Z 18009KT 11/M05 A3019 RMK A01 T01101047  RH  033%=      5-min Rain = 0
KEA1 160015Z 17009KT 11/M05 A3019 RMK A01 T01091047  RH  033%=      5-min Rain = 0
KEA1 160016Z 17009KT 11/M05 A3019 RMK A01 T01091047  RH  033%=      5-min Rain = 0
KEA1 160017Z 17009KT 11/M05 A3019 RMK A01 T01081047  RH  033%=      5-min Rain = 0
KEA1 160018Z 17010KT 11/M05 A3019 RMK A01 T01071048  RH  033%=      5-min Rain = 0
KEA1 160019Z 18010KT 11/M05 A3019 RMK A01 T01061048  RH  034%=      5-min Rain = 0
KEA1 160020Z 18009KT 11/M05 A3019 RMK A01 T01061047  RH  034%=      5-min Rain = 0
KEA1 160021Z 18011KT 11/M05 A3019 RMK A01 T01061047  RH  034%=      5-min Rain = 0
KEA1 160022Z 18010KT 11/M05 A3019 RMK A01 T01061047  RH  034%=      5-min Rain = 0
KEA1 160023Z 18011KT 11/M05 A3019 RMK A01 T01061047  RH  034%=      5-min Rain = 0
KEA1 160024Z 18010KT 11/M05 A3019 RMK A01 T01061046  RH  034%=      5-min Rain = 0
KEA1 160025Z 18010KT 11/M05 A3019 RMK A01 T01071046  RH  034%=      5-min Rain = 0
KEA1 160026Z 18010KT 11/M05 A3019 RMK A01 T01071045  RH  034%=      5-min Rain = 0
KEA1 160027Z 18010KT 11/M05 A3019 RMK A01 T01081045  RH  034%=      5-min Rain = 0
KEA1 160028Z 18010KT 11/M05 A3019 RMK A01 T01081045  RH  034%=      5-min Rain = 0
KEA1 160029Z 18011KT 11/M05 A3019 RMK A01 T01081045  RH  034%=      5-min Rain = 0
KEA1 160030Z 18011KT 11/M05 A3019 RMK A01 T01091045  RH  034%=      5-min Rain = 0
KEA1 160031Z 18011KT 11/M05 A3019 RMK A01 T01091045  RH  034%=      5-min Rain = 0
KEA1 160032Z 18011KT 11/M05 A3019 RMK A01 T01101045  RH  033%=      5-min Rain = 0
KEA1 160033Z 18011KT 11/M05 A3019 RMK A01 T01091045  RH  034%=      5-min Rain = 0
KEA1 160034Z 18011KT 11/M05 A3019 RMK A01 T01091045  RH  034%=      5-min Rain = 0
KEA1 160035Z 18011KT 11/M05 A3019 RMK A01 T01091045  RH  034%=      5-min Rain = 0
KEA1 160036Z 18011KT 11/M05 A3019 RMK A01 T01091045  RH  034%=      5-min Rain = 0
KEA1 160037Z 18011KT 11/M05 A3019 RMK A01 T01101045  RH  034%=      5-min Rain = 0
KEA1 160038Z 18011KT 11/M05 A3019 RMK A01 T01101045  RH  034%=      5-min Rain = 0
KEA1 160039Z 18011KT 11/M05 A3019 RMK A01 T01101045  RH  034%=      5-min Rain = 0
KEA1 160040Z 18011KT 11/M05 A3019 RMK A01 T01101045  RH  034%=      5-min Rain = 0
KEA1 160041Z 18011KT 11/M04 A3019 RMK A01 T01101044  RH  034%=      5-min Rain = 0
KEA1 160042Z 18011KT 11/M05 A3019 RMK A01 T01091045  RH  034%=      5-min Rain = 0
KEA1 160043Z 18010KT 11/M05 A3019 RMK A01 T01081045  RH  034%=      5-min Rain = 0
KEA1 160044Z 18011KT 11/M05 A3019 RMK A01 T01081045  RH  034%=      5-min Rain = 0
KEA1 160045Z 18011KT 11/M05 A3019 RMK A01 T01081045  RH  034%=      5-min Rain = 0
KEA1 160046Z 18011KT 11/M05 A3019 RMK A01 T01071045  RH  034%=      5-min Rain = 0
KEA1 160047Z 18011KT 11/M05 A3019 RMK A01 T01081045  RH  034%=      5-min Rain = 0
KEA1 160048Z 18011KT 11/M05 A3019 RMK A01 T01081045  RH  034%=      5-min Rain = 0
KEA1 160049Z 18011KT 11/M05 A3019 RMK A01 T01081045  RH  034%=      5-min Rain = 0
KEA1 160050Z 18011KT 11/M05 A3019 RMK A01 T01081045  RH  034%=      5-min Rain = 0
KEA1 160051Z 18011KT 11/M05 A3019 RMK A01 T01081045  RH  034%=      5-min Rain = 0
KEA1 160052Z 18010KT 11/M05 A3019 RMK A01 T01081045  RH  034%=      5-min Rain = 0
KEA1 160053Z 18010KT 11/M05 A3019 RMK A01 T01071045  RH  034%=      5-min Rain = 0
KEA1 160054Z 18012KT 11/M05 A3019 RMK A01 T01061045  RH  034%=      5-min Rain = 0
KEA1 160055Z 18011KT 11/M05 A3019 RMK A01 T01071045  RH  034%=      5-min Rain = 0
KEA1 160056Z 18012KT 11/M05 A3019 RMK A01 T01071045  RH  034%=      5-min Rain = 0
KEA1 160057Z 18012KT 11/M05 A3019 RMK A01 T01071045  RH  034%=      5-min Rain = 0
KEA1 160058Z 18011KT 11/M05 A3019 RMK A01 T01071045  RH  034%=      5-min Rain = 0
KEA1 160059Z 18011KT 11/M05 A3019 RMK A01 T01071045  RH  034%=      5-min Rain = 0
KEA1 160100Z 18010KT 11/M04 A3019 RMK A01 T01071044  RH  034%=      5-min Rain = 0
KEA1 160101Z 18011KT 11/M04 A3019 RMK A01 T01071044  RH  034%=      5-min Rain = 0
KEA1 160102Z 18011KT 11/M04 A3019 RMK A01 T01061044  RH  034%=      5-min Rain = 0
KEA1 160103Z 18010KT 11/M04 A3019 RMK A01 T01061044  RH  035%=      5-min Rain = 0
KEA1 160104Z 18010KT 11/M04 A3019 RMK A01 T01051044  RH  035%=      5-min Rain = 0
KEA1 160105Z 17010KT 10/M04 A3019 RMK A01 T01041044  RH  035%=      5-min Rain = 0
KEA1 160106Z 18010KT 10/M04 A3019 RMK A01 T01031044  RH  035%=      5-min Rain = 0
KEA1 160107Z 18010KT 10/M04 A3019 RMK A01 T01031044  RH  035%=      5-min Rain = 0
KEA1 160108Z 18010KT 10/M04 A3019 RMK A01 T01021044  RH  035%=      5-min Rain = 0
KEA1 160109Z 18010KT 10/M04 A3019 RMK A01 T01021044  RH  036%=      5-min Rain = 0
KEA1 160110Z 18009KT 10/M04 A3019 RMK A01 T01011044  RH  036%=      5-min Rain = 0
KEA1 160111Z 18010KT 10/M04 A3019 RMK A01 T01011044  RH  036%=      5-min Rain = 0
KEA1 160112Z 18011KT 10/M05 A3019 RMK A01 T01011045  RH  036%=      5-min Rain = 0
KEA1 160113Z 18010KT 10/M04 A3019 RMK A01 T01001044  RH  036%=      5-min Rain = 0
KEA1 160114Z 18010KT 10/M04 A3019 RMK A01 T01001044  RH  036%=      5-min Rain = 0
KEA1 160115Z 18010KT 10/M04 A3019 RMK A01 T01001044  RH  036%=      5-min Rain = 0
KEA1 160116Z 18010KT 10/M04 A3019 RMK A01 T01011043  RH  036%=      5-min Rain = 0
KEA1 160117Z 18010KT 10/M04 A3019 RMK A01 T01011043  RH  036%=      5-min Rain = 0
KEA1 160118Z 18010KT 10/M04 A3019 RMK A01 T01011043  RH  036%=      5-min Rain = 0
KEA1 160119Z 18011KT 10/M04 A3019 RMK A01 T01011043  RH  036%=      5-min Rain = 0
KEA1 160120Z 18010KT 10/M04 A3019 RMK A01 T01011043  RH  036%=      5-min Rain = 0
KEA1 160121Z 18011KT 10/M04 A3019 RMK A01 T01001043  RH  036%=      5-min Rain = 0
KEA1 160122Z 18010KT 10/M04 A3019 RMK A01 T01011043  RH  036%=      5-min Rain = 0
KEA1 160123Z 18011KT 10/M04 A3019 RMK A01 T01011043  RH  036%=      5-min Rain = 0
KEA1 160124Z 18010KT 10/M04 A3019 RMK A01 T01001043  RH  036%=      5-min Rain = 0
KEA1 160125Z 18011KT 10/M04 A3019 RMK A01 T01001043  RH  036%=      5-min Rain = 0
KEA1 160126Z 18011KT 10/M04 A3019 RMK A01 T01001043  RH  036%=      5-min Rain = 0
KEA1 160127Z 18010KT 10/M04 A3019 RMK A01 T01001042  RH  036%=      5-min Rain = 0
KEA1 160128Z 18011KT 10/M04 A3019 RMK A01 T01001042  RH  036%=      5-min Rain = 0
KEA1 160129Z 18010KT 10/M04 A3019 RMK A01 T01001042  RH  036%=      5-min Rain = 0
KEA1 160130Z 18010KT 10/M04 A3019 RMK A01 T00991042  RH  037%=      5-min Rain = 0
KEA1 160131Z 18010KT 10/M04 A3019 RMK A01 T00991043  RH  037%=      5-min Rain = 0
KEA1 160132Z 18011KT 10/M04 A3019 RMK A01 T00981043  RH  037%=      5-min Rain = 0
KEA1 160133Z 18011KT 10/M04 A3019 RMK A01 T00981042  RH  037%=      5-min Rain = 0
KEA1 160134Z 18010KT 10/M04 A3019 RMK A01 T00991042  RH  037%=      5-min Rain = 0
KEA1 160135Z 18010KT 10/M04 A3019 RMK A01 T00981042  RH  037%=      5-min Rain = 0
KEA1 160136Z 18010KT 10/M04 A3019 RMK A01 T00991041  RH  037%=      5-min Rain = 0
KEA1 160137Z 18010KT 10/M04 A3019 RMK A01 T00981042  RH  037%=      5-min Rain = 0
KEA1 160138Z 18010KT 10/M04 A3019 RMK A01 T00971042  RH  037%=      5-min Rain = 0
KEA1 160139Z 18009KT 10/M04 A3019 RMK A01 T00961042  RH  037%=      5-min Rain = 0
KEA1 160140Z 18010KT 10/M04 A3019 RMK A01 T00961042  RH  038%=      5-min Rain = 0
KEA1 160141Z 18010KT 10/M04 A3019 RMK A01 T00951042  RH  038%=      5-min Rain = 0
KEA1 160142Z 18010KT 10/M04 A3019 RMK A01 T00951042  RH  038%=      5-min Rain = 0
KEA1 160143Z 18009KT 10/M04 A3019 RMK A01 T00951041  RH  038%=      5-min Rain = 0
KEA1 160144Z 18010KT 09/M04 A3019 RMK A01 T00941042  RH  038%=      5-min Rain = 0
KEA1 160145Z 18010KT 09/M04 A3019 RMK A01 T00941041  RH  038%=      5-min Rain = 0
KEA1 160146Z 18010KT 09/M04 A3019 RMK A01 T00941041  RH  038%=      5-min Rain = 0
KEA1 160147Z 18010KT 09/M04 A3019 RMK A01 T00931041  RH  038%=      5-min Rain = 0
KEA1 160148Z 18010KT 09/M04 A3019 RMK A01 T00931042  RH  038%=      5-min Rain = 0
KEA1 160149Z 18009KT 09/M04 A3019 RMK A01 T00931041  RH  039%=      5-min Rain = 0
KEA1 160150Z 18011KT 09/M04 A3019 RMK A01 T00911042  RH  039%=      5-min Rain = 0
KEA1 160151Z 18010KT 09/M04 A3019 RMK A01 T00911041  RH  039%=      5-min Rain = 0
KEA1 160152Z 18010KT 09/M04 A302 RMK A01 T00911041  RH  039%=      5-min Rain = 0
KEA1 160153Z 18010KT 09/M04 A3019 RMK A01 T00901041  RH  039%=      5-min Rain = 0
KEA1 160154Z 18010KT 09/M04 A3019 RMK A01 T00901041  RH  039%=      5-min Rain = 0
KEA1 160155Z 18010KT 09/M04 A3019 RMK A01 T00891041  RH  039%=      5-min Rain = 0
KEA1 160156Z 18010KT 09/M04 A3019 RMK A01 T00891041  RH  040%=      5-min Rain = 0
KEA1 160157Z 18011KT 09/M04 A3019 RMK A01 T00891041  RH  040%=      5-min Rain = 0
KEA1 160158Z 18011KT 09/M04 A3019 RMK A01 T00891041  RH  040%=      5-min Rain = 0
KEA1 160159Z 18010KT 09/M04 A3019 RMK A01 T00881041  RH  040%=      5-min Rain = 0
KEA1 160200Z 18011KT 09/M04 A3019 RMK A01 T00881041  RH  040%=      5-min Rain = 0
KEA1 160201Z 18011KT 09/M04 A302 RMK A01 T00881041  RH  040%=      5-min Rain = 0
KEA1 160202Z 18011KT 09/M04 A302 RMK A01 T00881041  RH  040%=      5-min Rain = 0
KEA1 160203Z 18011KT 09/M04 A302 RMK A01 T00881040  RH  040%=      5-min Rain = 0
KEA1 160204Z 18010KT 09/M04 A302 RMK A01 T00891040  RH  040%=      5-min Rain = 0
KEA1 160205Z 18011KT 09/M04 A302 RMK A01 T00891040  RH  040%=      5-min Rain = 0
KEA1 160206Z 18011KT 09/M04 A302 RMK A01 T00891040  RH  040%=      5-min Rain = 0
KEA1 160207Z 18010KT 09/M04 A302 RMK A01 T00891040  RH  040%=      5-min Rain = 0
KEA1 160208Z 18011KT 09/M04 A302 RMK A01 T00901040  RH  040%=      5-min Rain = 0
KEA1 160209Z 18011KT 09/M04 A302 RMK A01 T00891040  RH  040%=      5-min Rain = 0
KEA1 160210Z 18011KT 09/M04 A302 RMK A01 T00901039  RH  040%=      5-min Rain = 0
KEA1 160211Z 18011KT 09/M04 A302 RMK A01 T00901040  RH  040%=      5-min Rain = 0
KEA1 160212Z 18011KT 09/M04 A302 RMK A01 T00901040  RH  040%=      5-min Rain = 0
KEA1 160213Z 18012KT 09/M04 A302 RMK A01 T00901040  RH  040%=      5-min Rain = 0
KEA1 160214Z 18011KT 09/M04 A3019 RMK A01 T00911039  RH  040%=      5-min Rain = 0
KEA1 160215Z 18012KT 09/M04 A3019 RMK A01 T00911039  RH  040%=      5-min Rain = 0
KEA1 160216Z 18013KT 09/M04 A3019 RMK A01 T00911039  RH  040%=      5-min Rain = 0
KEA1 160217Z 18012KT 09/M04 A3019 RMK A01 T00921039  RH  039%=      5-min Rain = 0
KEA1 160218Z 18012KT 09/M04 A3019 RMK A01 T00921039  RH  039%=      5-min Rain = 0
KEA1 160219Z 18012KT 09/M04 A3019 RMK A01 T00921039  RH  039%=      5-min Rain = 0
KEA1 160220Z 19012KT 09/M04 A3019 RMK A01 T00921039  RH  039%=      5-min Rain = 0
KEA1 160221Z 19012KT 09/M04 A3019 RMK A01 T00921039  RH  039%=      5-min Rain = 0
KEA1 160222Z 18013KT 09/M04 A3019 RMK A01 T00921039  RH  039%=      5-min Rain = 0
KEA1 160223Z 18013KT 09/M04 A3019 RMK A01 T00931038  RH  039%=      5-min Rain = 0
KEA1 160224Z 19013KT 09/M04 A3019 RMK A01 T00931039  RH  039%=      5-min Rain = 0
KEA1 160225Z 18013KT 09/M04 A3019 RMK A01 T00931039  RH  039%=      5-min Rain = 0
KEA1 160226Z 18013KT 09/M04 A3019 RMK A01 T00931039  RH  039%=      5-min Rain = 0
KEA1 160227Z 18012KT 09/M04 A3019 RMK A01 T00931039  RH  039%=      5-min Rain = 0
KEA1 160228Z 18013KT 09/M04 A3019 RMK A01 T00931038  RH  039%=      5-min Rain = 0
KEA1 160229Z 18013KT 09/M04 A3019 RMK A01 T00931038  RH  039%=      5-min Rain = 0
KEA1 160230Z 18013KT 09/M04 A3019 RMK A01 T00931038  RH  039%=      5-min Rain = 0
KEA1 160231Z 18013KT 09/M04 A3019 RMK A01 T00931038  RH  039%=      5-min Rain = 0
KEA1 160232Z 18012KT 09/M04 A3019 RMK A01 T00941038  RH  039%=      5-min Rain = 0
KEA1 160233Z 19012KT 09/M04 A3019 RMK A01 T00931038  RH  039%=      5-min Rain = 0
KEA1 160234Z 18013KT 09/M04 A3019 RMK A01 T00931038  RH  039%=      5-min Rain = 0
KEA1 160235Z 18013KT 09/M04 A3019 RMK A01 T00931038  RH  039%=      5-min Rain = 0
KEA1 160236Z 19012KT 09/M04 A3019 RMK A01 T00931038  RH  039%=      5-min Rain = 0
KEA1 160237Z 18011KT 09/M04 A3019 RMK A01 T00931038  RH  039%=      5-min Rain = 0
KEA1 160238Z 18012KT 09/M04 A3019 RMK A01 T00931038  RH  040%=      5-min Rain = 0
KEA1 160239Z 18011KT 09/M04 A3019 RMK A01 T00921038  RH  040%=      5-min Rain = 0
KEA1 160240Z 18011KT 09/M04 A3019 RMK A01 T00911038  RH  040%=      5-min Rain = 0
KEA1 160241Z 18012KT 09/M04 A3019 RMK A01 T00901038  RH  040%=      5-min Rain = 0
KEA1 160242Z 18012KT 09/M04 A3019 RMK A01 T00901038  RH  040%=      5-min Rain = 0
KEA1 160243Z 18011KT 09/M04 A3019 RMK A01 T00901038  RH  040%=      5-min Rain = 0
KEA1 160244Z 18012KT 09/M04 A3019 RMK A01 T00901038  RH  040%=      5-min Rain = 0
KEA1 160245Z 18012KT 09/M04 A3019 RMK A01 T00901038  RH  040%=      5-min Rain = 0
KEA1 160246Z 18011KT 09/M04 A3019 RMK A01 T00891038  RH  041%=      5-min Rain = 0
KEA1 160247Z 18011KT 09/M04 A3019 RMK A01 T00881038  RH  041%=      5-min Rain = 0
KEA1 160248Z 17011KT 09/M04 A3019 RMK A01 T00871038  RH  041%=      5-min Rain = 0
KEA1 160249Z 18011KT 09/M04 A3019 RMK A01 T00861038  RH  041%=      5-min Rain = 0
KEA1 160250Z 18012KT 09/M04 A3019 RMK A01 T00861038  RH  041%=      5-min Rain = 0
KEA1 160251Z 18012KT 09/M04 A3019 RMK A01 T00861038  RH  041%=      5-min Rain = 0
KEA1 160252Z 18013KT 09/M04 A3019 RMK A01 T00871037  RH  041%=      5-min Rain = 0
KEA1 160253Z 18011KT 09/M04 A3019 RMK A01 T00871037  RH  041%=      5-min Rain = 0
KEA1 160254Z 18012KT 09/M04 A3019 RMK A01 T00871037  RH  041%=      5-min Rain = 0
KEA1 160255Z 18011KT 09/M04 A3019 RMK A01 T00861037  RH  042%=      5-min Rain = 0
KEA1 160256Z 18011KT 09/M04 A3019 RMK A01 T00851038  RH  042%=      5-min Rain = 0
KEA1 160257Z 18011KT 08/M04 A3019 RMK A01 T00841038  RH  042%=      5-min Rain = 0
KEA1 160258Z 18011KT 08/M04 A3019 RMK A01 T00841037  RH  042%=      5-min Rain = 0
KEA1 160259Z 18012KT 08/M04 A3019 RMK A01 T00841037  RH  042%=      5-min Rain = 0
KEA1 160300Z 18011KT 08/M04 A3019 RMK A01 T00841037  RH  042%=      5-min Rain = 0
KEA1 160301Z 18010KT 08/M04 A3019 RMK A01 T00831038  RH  042%=      5-min Rain = 0
KEA1 160302Z 18012KT 08/M04 A3019 RMK A01 T00821038  RH  043%=      5-min Rain = 0
KEA1 160303Z 18011KT 08/M04 A3019 RMK A01 T00821037  RH  043%=      5-min Rain = 0
KEA1 160304Z 18012KT 08/M04 A3019 RMK A01 T00811037  RH  043%=      5-min Rain = 0
KEA1 160305Z 17011KT 08/M04 A3019 RMK A01 T00811037  RH  043%=      5-min Rain = 0
KEA1 160306Z 18011KT 08/M04 A3019 RMK A01 T00811037  RH  043%=      5-min Rain = 0
KEA1 160307Z 18011KT 08/M04 A3019 RMK A01 T00801037  RH  043%=      5-min Rain = 0
KEA1 160308Z 18011KT 08/M04 A3019 RMK A01 T00801037  RH  043%=      5-min Rain = 0
KEA1 160309Z 18011KT 08/M04 A3019 RMK A01 T00791037  RH  044%=      5-min Rain = 0
KEA1 160310Z 18011KT 08/M04 A3019 RMK A01 T00791037  RH  044%=      5-min Rain = 0
KEA1 160311Z 18011KT 08/M04 A3019 RMK A01 T00791037  RH  044%=      5-min Rain = 0
KEA1 160312Z 18011KT 08/M04 A3019 RMK A01 T00781037  RH  044%=      5-min Rain = 0
KEA1 160313Z 18011KT 08/M04 A3019 RMK A01 T00781037  RH  044%=      5-min Rain = 0
KEA1 160314Z 18012KT 08/M04 A3018 RMK A01 T00781037  RH  044%=      5-min Rain = 0
KEA1 160315Z 18012KT 08/M04 A3018 RMK A01 T00781036  RH  044%=      5-min Rain = 0
KEA1 160316Z 18012KT 08/M04 A3018 RMK A01 T00791036  RH  044%=      5-min Rain = 0
KEA1 160317Z 18011KT 08/M04 A3018 RMK A01 T00791036  RH  044%=      5-min Rain = 0
KEA1 160318Z 18012KT 08/M04 A3018 RMK A01 T00801036  RH  044%=      5-min Rain = 0
KEA1 160319Z 18011KT 08/M04 A3018 RMK A01 T00791036  RH  044%=      5-min Rain = 0
KEA1 160320Z 18012KT 08/M04 A3018 RMK A01 T00791036  RH  044%=      5-min Rain = 0
KEA1 160321Z 18011KT 08/M04 A3018 RMK A01 T00791035  RH  044%=      5-min Rain = 0
KEA1 160322Z 18011KT 08/M04 A3018 RMK A01 T00801035  RH  044%=      5-min Rain = 0
KEA1 160323Z 18011KT 08/M04 A3018 RMK A01 T00791035  RH  044%=      5-min Rain = 0
KEA1 160324Z 18011KT 08/M04 A3018 RMK A01 T00791035  RH  044%=      5-min Rain = 0
KEA1 160325Z 18012KT 08/M04 A3018 RMK A01 T00781036  RH  044%=      5-min Rain = 0
KEA1 160326Z 18011KT 08/M04 A3018 RMK A01 T00781035  RH  045%=      5-min Rain = 0
KEA1 160327Z 18012KT 08/M04 A3018 RMK A01 T00781035  RH  045%=      5-min Rain = 0
KEA1 160328Z 18012KT 08/M04 A3018 RMK A01 T00781035  RH  045%=      5-min Rain = 0
KEA1 160329Z 18011KT 08/M03 A3018 RMK A01 T00781034  RH  045%=      5-min Rain = 0
KEA1 160330Z 18012KT 08/M03 A3018 RMK A01 T00781034  RH  045%=      5-min Rain = 0
KEA1 160331Z 18012KT 08/M03 A3018 RMK A01 T00781034  RH  045%=      5-min Rain = 0
KEA1 160332Z 18011KT 08/M03 A3018 RMK A01 T00781034  RH  045%=      5-min Rain = 0
KEA1 160333Z 18012KT 08/M03 A3018 RMK A01 T00781033  RH  045%=      5-min Rain = 0
KEA1 160334Z 18012KT 08/M03 A3018 RMK A01 T00781033  RH  045%=      5-min Rain = 0
KEA1 160335Z 18012KT 08/M03 A3018 RMK A01 T00781033  RH  045%=      5-min Rain = 0
KEA1 160336Z 18012KT 08/M03 A3018 RMK A01 T00781033  RH  045%=      5-min Rain = 0
KEA1 160337Z 18012KT 08/M03 A3018 RMK A01 T00791033  RH  045%=      5-min Rain = 0
KEA1 160338Z 18013KT 08/M03 A3018 RMK A01 T00791033  RH  045%=      5-min Rain = 0
KEA1 160339Z 18012KT 08/M03 A3018 RMK A01 T00791033  RH  045%=      5-min Rain = 0
KEA1 160340Z 18011KT 08/M03 A3018 RMK A01 T00791032  RH  046%=      5-min Rain = 0
KEA1 160341Z 18013KT 08/M03 A3018 RMK A01 T00781032  RH  046%=      5-min Rain = 0
KEA1 160342Z 18013KT 08/M03 A3018 RMK A01 T00781032  RH  046%=      5-min Rain = 0
KEA1 160343Z 18012KT 08/M03 A3018 RMK A01 T00781032  RH  046%=      5-min Rain = 0
KEA1 160344Z 18013KT 08/M03 A3018 RMK A01 T00781031  RH  046%=      5-min Rain = 0
KEA1 160345Z 18012KT 08/M03 A3018 RMK A01 T00781031  RH  046%=      5-min Rain = 0
KEA1 160346Z 18013KT 08/M03 A3018 RMK A01 T00781031  RH  046%=      5-min Rain = 0
KEA1 160347Z 18011KT 08/M03 A3018 RMK A01 T00781031  RH  046%=      5-min Rain = 0
KEA1 160348Z 18012KT 08/M03 A3018 RMK A01 T00771031  RH  046%=      5-min Rain = 0
KEA1 160349Z 18012KT 08/M03 A3018 RMK A01 T00771030  RH  046%=      5-min Rain = 0
KEA1 160350Z 18012KT 08/M03 A3018 RMK A01 T00771030  RH  047%=      5-min Rain = 0
KEA1 160351Z 18014KT 08/M03 A3018 RMK A01 T00771030  RH  047%=      5-min Rain = 0
KEA1 160352Z 18013KT 08/M03 A3018 RMK A01 T00771030  RH  047%=      5-min Rain = 0
KEA1 160353Z 18012KT 08/M03 A3018 RMK A01 T00781029  RH  047%=      5-min Rain = 0
KEA1 160354Z 18011KT 08/M03 A3018 RMK A01 T00781029  RH  047%=      5-min Rain = 0
KEA1 160355Z 18012KT 08/M03 A3018 RMK A01 T00771030  RH  047%=      5-min Rain = 0
KEA1 160356Z 18012KT 08/M03 A3018 RMK A01 T00771029  RH  047%=      5-min Rain = 0
KEA1 160357Z 18012KT 08/M03 A3018 RMK A01 T00771029  RH  047%=      5-min Rain = 0
KEA1 160358Z 18013KT 08/M03 A3018 RMK A01 T00761029  RH  047%=      5-min Rain = 0
KEA1 160359Z 18013KT 08/M03 A3018 RMK A01 T00761028  RH  047%=      5-min Rain = 0
KEA1 160400Z 18012KT 08/M03 A3018 RMK A01 T00771028  RH  047%=      5-min Rain = 0
KEA1 160401Z 18012KT 08/M03 A3018 RMK A01 T00771028  RH  047%=      5-min Rain = 0
KEA1 160402Z 18012KT 08/M03 A3018 RMK A01 T00771028  RH  047%=      5-min Rain = 0
KEA1 160403Z 18012KT 08/M03 A3018 RMK A01 T00761028  RH  047%=      5-min Rain = 0
KEA1 160404Z 18012KT 08/M03 A3018 RMK A01 T00761028  RH  048%=      5-min Rain = 0
KEA1 160405Z 18013KT 08/M03 A3018 RMK A01 T00761028  RH  048%=      5-min Rain = 0
KEA1 160406Z 19012KT 08/M03 A3018 RMK A01 T00761028  RH  048%=      5-min Rain = 0
KEA1 160407Z 19013KT 08/M03 A3018 RMK A01 T00751028  RH  048%=      5-min Rain = 0
KEA1 160408Z 18012KT 08/M03 A3018 RMK A01 T00751028  RH  048%=      5-min Rain = 0
KEA1 160409Z 18012KT 08/M03 A3018 RMK A01 T00751027  RH  048%=      5-min Rain = 0
KEA1 160410Z 18012KT 07/M03 A3018 RMK A01 T00741027  RH  048%=      5-min Rain = 0
KEA1 160411Z 18014KT 07/M03 A3018 RMK A01 T00741027  RH  049%=      5-min Rain = 0
KEA1 160412Z 18011KT 08/M03 A3018 RMK A01 T00751027  RH  049%=      5-min Rain = 0
KEA1 160413Z 18013KT 08/M03 A3018 RMK A01 T00751026  RH  049%=      5-min Rain = 0
KEA1 160414Z 18013KT 08/M03 A3018 RMK A01 T00751026  RH  049%=      5-min Rain = 0
KEA1 160415Z 18011KT 08/M03 A3018 RMK A01 T00751026  RH  049%=      5-min Rain = 0
KEA1 160416Z 18012KT 08/M03 A3018 RMK A01 T00751026  RH  049%=      5-min Rain = 0
KEA1 160417Z 18012KT 08/M03 A3018 RMK A01 T00751026  RH  049%=      5-min Rain = 0
KEA1 160418Z 19012KT 07/M03 A3018 RMK A01 T00741026  RH  049%=      5-min Rain = 0
KEA1 160419Z 18011KT 07/M03 A3018 RMK A01 T00741026  RH  049%=      5-min Rain = 0
KEA1 160420Z 18012KT 07/M03 A3018 RMK A01 T00731026  RH  049%=      5-min Rain = 0
KEA1 160421Z 18012KT 07/M03 A3018 RMK A01 T00731026  RH  050%=      5-min Rain = 0
KEA1 160422Z 18012KT 07/M03 A3018 RMK A01 T00731025  RH  050%=      5-min Rain = 0
KEA1 160423Z 18013KT 07/M03 A3018 RMK A01 T00741025  RH  050%=      5-min Rain = 0
KEA1 160424Z 18012KT 07/M03 A3018 RMK A01 T00741025  RH  050%=      5-min Rain = 0
KEA1 160425Z 18012KT 07/M03 A3017 RMK A01 T00731025  RH  050%=      5-min Rain = 0
KEA1 160426Z 18013KT 07/M03 A3017 RMK A01 T00731025  RH  050%=      5-min Rain = 0
KEA1 160427Z 18013KT 07/M03 A3017 RMK A01 T00731025  RH  050%=      5-min Rain = 0
KEA1 160428Z 18014KT 07/M02 A3017 RMK A01 T00741024  RH  050%=      5-min Rain = 0
KEA1 160429Z 18014KT 08/M02 A3017 RMK A01 T00751024  RH  050%=      5-min Rain = 0
KEA1 160430Z 18013KT 08/M02 A3017 RMK A01 T00751024  RH  050%=      5-min Rain = 0
KEA1 160431Z 18012KT 08/M02 A3017 RMK A01 T00751024  RH  050%=      5-min Rain = 0
KEA1 160432Z 18014KT 07/M02 A3017 RMK A01 T00741024  RH  050%=      5-min Rain = 0
KEA1 160433Z 18012KT 07/M02 A3017 RMK A01 T00741024  RH  050%=      5-min Rain = 0
KEA1 160434Z 18013KT 07/M02 A3017 RMK A01 T00731024  RH  050%=      5-min Rain = 0
KEA1 160435Z 18012KT 07/M02 A3017 RMK A01 T00731024  RH  050%=      5-min Rain = 0
KEA1 160436Z 18010KT 07/M02 A3017 RMK A01 T00741023  RH  050%=      5-min Rain = 0
KEA1 160437Z 19012KT 07/M02 A3017 RMK A01 T00721024  RH  050%=      5-min Rain = 0
KEA1 160438Z 18012KT 07/M02 A3017 RMK A01 T00721023  RH  051%=      5-min Rain = 0
KEA1 160439Z 18013KT 07/M02 A3017 RMK A01 T00721023  RH  051%=      5-min Rain = 0
KEA1 160440Z 19012KT 07/M02 A3017 RMK A01 T00721023  RH  051%=      5-min Rain = 0
KEA1 160441Z 19012KT 07/M02 A3017 RMK A01 T00721023  RH  051%=      5-min Rain = 0
KEA1 160442Z 19012KT 07/M02 A3017 RMK A01 T00721023  RH  051%=      5-min Rain = 0
KEA1 160443Z 19012KT 07/M02 A3017 RMK A01 T00721022  RH  051%=      5-min Rain = 0
KEA1 160444Z 19013KT 07/M02 A3017 RMK A01 T00721023  RH  051%=      5-min Rain = 0
KEA1 160445Z 19014KT 07/M02 A3017 RMK A01 T00731022  RH  051%=      5-min Rain = 0
KEA1 160446Z 18013KT 07/M02 A3017 RMK A01 T00731022  RH  051%=      5-min Rain = 0
KEA1 160447Z 19013KT 07/M02 A3017 RMK A01 T00731022  RH  051%=      5-min Rain = 0
KEA1 160448Z 19013KT 07/M02 A3017 RMK A01 T00731021  RH  051%=      5-min Rain = 0
KEA1 160449Z 19014KT 07/M02 A3017 RMK A01 T00741021  RH  051%=      5-min Rain = 0
KEA1 160450Z 19012KT 07/M02 A3017 RMK A01 T00741021  RH  051%=      5-min Rain = 0
KEA1 160451Z 19013KT 07/M02 A3017 RMK A01 T00741021  RH  051%=      5-min Rain = 0
KEA1 160452Z 19013KT 07/M02 A3017 RMK A01 T00741021  RH  051%=      5-min Rain = 0
KEA1 160453Z 19013KT 07/M02 A3017 RMK A01 T00731021  RH  051%=      5-min Rain = 0
KEA1 160454Z 19012KT 07/M02 A3017 RMK A01 T00731021  RH  051%=      5-min Rain = 0
KEA1 160455Z 19013KT 07/M02 A3017 RMK A01 T00731021  RH  051%=      5-min Rain = 0
KEA1 160456Z 19013KT 07/M02 A3017 RMK A01 T00721021  RH  052%=      5-min Rain = 0
KEA1 160457Z 19014KT 07/M02 A3017 RMK A01 T00721020  RH  052%=      5-min Rain = 0
KEA1 160458Z 19013KT 07/M02 A3017 RMK A01 T00731020  RH  052%=      5-min Rain = 0
KEA1 160459Z 18012KT 07/M02 A3017 RMK A01 T00731020  RH  051%=      5-min Rain = 0
KEA1 160500Z 19013KT 07/M02 A3017 RMK A01 T00731020  RH  051%=      5-min Rain = 0
KEA1 160501Z 19013KT 07/M02 A3017 RMK A01 T00731020  RH  052%=      5-min Rain = 0
KEA1 160502Z 18013KT 07/M02 A3017 RMK A01 T00731020  RH  052%=      5-min Rain = 0
KEA1 160503Z 19012KT 07/M02 A3017 RMK A01 T00731020  RH  052%=      5-min Rain = 0
KEA1 160504Z 19012KT 07/M02 A3017 RMK A01 T00731019  RH  052%=      5-min Rain = 0
KEA1 160505Z 19013KT 07/M02 A3017 RMK A01 T00731019  RH  052%=      5-min Rain = 0
KEA1 160506Z 19011KT 07/M02 A3017 RMK A01 T00731019  RH  052%=      5-min Rain = 0
KEA1 160507Z 19011KT 07/M02 A3017 RMK A01 T00741019  RH  052%=      5-min Rain = 0
KEA1 160508Z 19011KT 07/M02 A3017 RMK A01 T00731019  RH  052%=      5-min Rain = 0
KEA1 160509Z 19013KT 07/M02 A3017 RMK A01 T00731019  RH  052%=      5-min Rain = 0
KEA1 160510Z 19013KT 07/M02 A3017 RMK A01 T00741018  RH  052%=      5-min Rain = 0
KEA1 160511Z 19012KT 07/M02 A3017 RMK A01 T00741018  RH  052%=      5-min Rain = 0
KEA1 160512Z 19012KT 07/M02 A3017 RMK A01 T00741018  RH  052%=      5-min Rain = 0
KEA1 160513Z 19014KT 07/M02 A3017 RMK A01 T00741018  RH  052%=      5-min Rain = 0
KEA1 160514Z 19012KT 07/M02 A3017 RMK A01 T00741018  RH  052%=      5-min Rain = 0
KEA1 160515Z 19012KT 08/M02 A3017 RMK A01 T00751018  RH  052%=      5-min Rain = 0
KEA1 160516Z 19013KT 08/M02 A3017 RMK A01 T00751018  RH  052%=      5-min Rain = 0
KEA1 160517Z 19012KT 08/M02 A3017 RMK A01 T00751018  RH  052%=      5-min Rain = 0
KEA1 160518Z 19012KT 08/M02 A3017 RMK A01 T00751018  RH  052%=      5-min Rain = 0
KEA1 160519Z 19012KT 08/M02 A3017 RMK A01 T00751018  RH  052%=      5-min Rain = 0
KEA1 160520Z 19012KT 08/M02 A3017 RMK A01 T00751017  RH  052%=      5-min Rain = 0
KEA1 160521Z 19014KT 08/M02 A3017 RMK A01 T00751017  RH  052%=      5-min Rain = 0
KEA1 160522Z 19012KT 08/M02 A3017 RMK A01 T00751017  RH  052%=      5-min Rain = 0
KEA1 160523Z 19012KT 08/M02 A3017 RMK A01 T00751017  RH  052%=      5-min Rain = 0
KEA1 160524Z 19012KT 08/M02 A3017 RMK A01 T00751017  RH  052%=      5-min Rain = 0
KEA1 160525Z 20012KT 08/M02 A3017 RMK A01 T00751017  RH  052%=      5-min Rain = 0
KEA1 160526Z 20010KT 08/M02 A3017 RMK A01 T00751017  RH  052%=      5-min Rain = 0
KEA1 160527Z 19013KT 08/M02 A3017 RMK A01 T00751017  RH  052%=      5-min Rain = 0
KEA1 160528Z 19012KT 08/M02 A3017 RMK A01 T00751017  RH  052%=      5-min Rain = 0
KEA1 160529Z 20011KT 08/M02 A3017 RMK A01 T00751017  RH  052%=      5-min Rain = 0
KEA1 160530Z 19013KT 08/M02 A3017 RMK A01 T00751017  RH  052%=      5-min Rain = 0
KEA1 160531Z 19011KT 08/M02 A3017 RMK A01 T00751017  RH  052%=      5-min Rain = 0
KEA1 160532Z 20011KT 07/M02 A3017 RMK A01 T00741017  RH  052%=      5-min Rain = 0
KEA1 160533Z 20009KT 07/M02 A3017 RMK A01 T00741016  RH  053%=      5-min Rain = 0
KEA1 160534Z 20008KT 07/M02 A3017 RMK A01 T00731017  RH  053%=      5-min Rain = 0
KEA1 160535Z 20008KT 07/M02 A3017 RMK A01 T00731017  RH  053%=      5-min Rain = 0
KEA1 160536Z 20008KT 07/M02 A3017 RMK A01 T00721017  RH  053%=      5-min Rain = 0
KEA1 160537Z 20007KT 07/M02 A3017 RMK A01 T00721017  RH  053%=      5-min Rain = 0
KEA1 160538Z 20007KT 07/M02 A3017 RMK A01 T00711017  RH  054%=      5-min Rain = 0
KEA1 160539Z 20009KT 07/M02 A3017 RMK A01 T00711016  RH  054%=      5-min Rain = 0
KEA1 160540Z 20008KT 07/M02 A3017 RMK A01 T00711016  RH  054%=      5-min Rain = 0
KEA1 160541Z 21006KT 07/M02 A3017 RMK A01 T00711017  RH  054%=      5-min Rain = 0
KEA1 160542Z 20007KT 07/M02 A3017 RMK A01 T00711017  RH  054%=      5-min Rain = 0
KEA1 160543Z 20006KT 07/M02 A3017 RMK A01 T00711016  RH  054%=      5-min Rain = 0
KEA1 160544Z 21006KT 07/M02 A3017 RMK A01 T00701017  RH  054%=      5-min Rain = 0
KEA1 160545Z 21006KT 07/M02 A3017 RMK A01 T00701017  RH  054%=      5-min Rain = 0
KEA1 160546Z 21006KT 07/M02 A3017 RMK A01 T00701016  RH  054%=      5-min Rain = 0
KEA1 160547Z 20005KT 07/M02 A3017 RMK A01 T00701017  RH  054%=      5-min Rain = 0
KEA1 160548Z 20005KT 07/M02 A3017 RMK A01 T00691017  RH  054%=      5-min Rain = 0
KEA1 160549Z 20006KT 07/M02 A3017 RMK A01 T00681017  RH  055%=      5-min Rain = 0
KEA1 160550Z 21005KT 07/M02 A3017 RMK A01 T00681017  RH  055%=      5-min Rain = 0
KEA1 160551Z 20006KT 07/M02 A3017 RMK A01 T00681017  RH  055%=      5-min Rain = 0
KEA1 160552Z 20007KT 07/M02 A3017 RMK A01 T00671017  RH  055%=      5-min Rain = 0
KEA1 160553Z 20007KT 07/M02 A3017 RMK A01 T00671017  RH  055%=      5-min Rain = 0
KEA1 160554Z 20006KT 07/M02 A3017 RMK A01 T00681016  RH  055%=      5-min Rain = 0
KEA1 160555Z 20008KT 07/M02 A3017 RMK A01 T00671016  RH  055%=      5-min Rain = 0
KEA1 160556Z 20006KT 07/M02 A3017 RMK A01 T00681016  RH  055%=      5-min Rain = 0
KEA1 160557Z 20007KT 07/M02 A3017 RMK A01 T00681016  RH  055%=      5-min Rain = 0
KEA1 160558Z 19008KT 07/M02 A3017 RMK A01 T00671016  RH  055%=      5-min Rain = 0
KEA1 160559Z 20009KT 07/M02 A3017 RMK A01 T00671016  RH  055%=      5-min Rain = 0

Page generated in 0.142 seconds.